<?xml version="1.0" encoding="UTF-8" standalone="no" ?>
<gpx xmlns="http://www.topografix.com/GPX/1/1" xmlns:xsi="http://www.w3.org/2001/XMLSchema-instance" xsi:schemaLocation="http://www.topografix.com/GPX/1/1 http://www.topografix.com/GPX/1/1/gpx.xsd" version="1.1" creator="VisuGPX - https://www.visugpx.com">
  <metadata>
    <name>sortie cyclo du 26/04/2011</name>
    <desc><![CDATA[sortie cyclo assez difficile faute au fort vent du nord]]></desc>
  </metadata>
  <trk>
    <name><![CDATA[neuvilley]]></name>
    <trkseg>
      <trkpt lat="47.07315" lon="5.49274">
        <ele>195.284912</ele>
        <time>2011-04-26T13:47:43Z</time>
      </trkpt>
      <trkpt lat="47.07262" lon="5.49194">
        <ele>194.32373</ele>
        <time>2011-04-26T13:48:00Z</time>
      </trkpt>
      <trkpt lat="47.07244" lon="5.49175">
        <ele>194.32373</ele>
        <time>2011-04-26T13:48:04Z</time>
      </trkpt>
      <trkpt lat="47.07218" lon="5.49107">
        <ele>195.284912</ele>
        <time>2011-04-26T13:48:14Z</time>
      </trkpt>
      <trkpt lat="47.07204" lon="5.49065">
        <ele>196.726929</ele>
        <time>2011-04-26T13:48:22Z</time>
      </trkpt>
      <trkpt lat="47.07191" lon="5.49032">
        <ele>197.20752</ele>
        <time>2011-04-26T13:48:27Z</time>
      </trkpt>
      <trkpt lat="47.07175" lon="5.49">
        <ele>196.726929</ele>
        <time>2011-04-26T13:48:32Z</time>
      </trkpt>
      <trkpt lat="47.07116" lon="5.48899">
        <ele>197.688232</ele>
        <time>2011-04-26T13:48:48Z</time>
      </trkpt>
      <trkpt lat="47.07085" lon="5.48835">
        <ele>198.168945</ele>
        <time>2011-04-26T13:48:58Z</time>
      </trkpt>
      <trkpt lat="47.07065" lon="5.4881">
        <ele>198.168945</ele>
        <time>2011-04-26T13:49:03Z</time>
      </trkpt>
      <trkpt lat="47.07056" lon="5.48801">
        <ele>198.168945</ele>
        <time>2011-04-26T13:49:05Z</time>
      </trkpt>
      <trkpt lat="47.06997" lon="5.4874">
        <ele>197.20752</ele>
        <time>2011-04-26T13:49:19Z</time>
      </trkpt>
      <trkpt lat="47.06989" lon="5.4872">
        <ele>196.726929</ele>
        <time>2011-04-26T13:49:22Z</time>
      </trkpt>
      <trkpt lat="47.06972" lon="5.48705">
        <ele>196.246338</ele>
        <time>2011-04-26T13:49:26Z</time>
      </trkpt>
      <trkpt lat="47.06935" lon="5.48696">
        <ele>196.726929</ele>
        <time>2011-04-26T13:49:34Z</time>
      </trkpt>
      <trkpt lat="47.06922" lon="5.48696">
        <ele>197.688232</ele>
        <time>2011-04-26T13:49:37Z</time>
      </trkpt>
      <trkpt lat="47.06903" lon="5.48702">
        <ele>197.688232</ele>
        <time>2011-04-26T13:49:41Z</time>
      </trkpt>
      <trkpt lat="47.06807" lon="5.48788">
        <ele>198.649536</ele>
        <time>2011-04-26T13:50:02Z</time>
      </trkpt>
      <trkpt lat="47.06747" lon="5.48845">
        <ele>199.61084</ele>
        <time>2011-04-26T13:50:15Z</time>
      </trkpt>
      <trkpt lat="47.06712" lon="5.48838">
        <ele>199.130127</ele>
        <time>2011-04-26T13:50:23Z</time>
      </trkpt>
      <trkpt lat="47.06652" lon="5.48746">
        <ele>195.765625</ele>
        <time>2011-04-26T13:50:36Z</time>
      </trkpt>
      <trkpt lat="47.06638" lon="5.48689">
        <ele>196.246338</ele>
        <time>2011-04-26T13:50:41Z</time>
      </trkpt>
      <trkpt lat="47.0664" lon="5.48655">
        <ele>195.284912</ele>
        <time>2011-04-26T13:50:44Z</time>
      </trkpt>
      <trkpt lat="47.06654" lon="5.48599">
        <ele>195.284912</ele>
        <time>2011-04-26T13:50:50Z</time>
      </trkpt>
      <trkpt lat="47.06667" lon="5.4849">
        <ele>196.726929</ele>
        <time>2011-04-26T13:51:04Z</time>
      </trkpt>
      <trkpt lat="47.06642" lon="5.48448">
        <ele>196.726929</ele>
        <time>2011-04-26T13:51:11Z</time>
      </trkpt>
      <trkpt lat="47.06594" lon="5.48434">
        <ele>196.246338</ele>
        <time>2011-04-26T13:51:19Z</time>
      </trkpt>
      <trkpt lat="47.06565" lon="5.48384">
        <ele>194.804321</ele>
        <time>2011-04-26T13:51:26Z</time>
      </trkpt>
      <trkpt lat="47.06554" lon="5.4834">
        <ele>195.284912</ele>
        <time>2011-04-26T13:51:31Z</time>
      </trkpt>
      <trkpt lat="47.0653" lon="5.48299">
        <ele>193.843018</ele>
        <time>2011-04-26T13:51:37Z</time>
      </trkpt>
      <trkpt lat="47.06455" lon="5.48269">
        <ele>194.32373</ele>
        <time>2011-04-26T13:51:50Z</time>
      </trkpt>
      <trkpt lat="47.06361" lon="5.48229">
        <ele>191.439575</ele>
        <time>2011-04-26T13:52:04Z</time>
      </trkpt>
      <trkpt lat="47.06298" lon="5.48211">
        <ele>189.036377</ele>
        <time>2011-04-26T13:52:11Z</time>
      </trkpt>
      <trkpt lat="47.06251" lon="5.48207">
        <ele>188.555786</ele>
        <time>2011-04-26T13:52:16Z</time>
      </trkpt>
      <trkpt lat="47.06161" lon="5.48247">
        <ele>188.075073</ele>
        <time>2011-04-26T13:52:28Z</time>
      </trkpt>
      <trkpt lat="47.0605" lon="5.48296">
        <ele>187.11377</ele>
        <time>2011-04-26T13:52:45Z</time>
      </trkpt>
      <trkpt lat="47.0603" lon="5.48298">
        <ele>185.671753</ele>
        <time>2011-04-26T13:52:48Z</time>
      </trkpt>
      <trkpt lat="47.05904" lon="5.48325">
        <ele>185.671753</ele>
        <time>2011-04-26T13:53:07Z</time>
      </trkpt>
      <trkpt lat="47.0577" lon="5.48399">
        <ele>186.152466</ele>
        <time>2011-04-26T13:53:29Z</time>
      </trkpt>
      <trkpt lat="47.05727" lon="5.48373">
        <ele>185.191162</ele>
        <time>2011-04-26T13:53:37Z</time>
      </trkpt>
      <trkpt lat="47.05694" lon="5.48311">
        <ele>185.191162</ele>
        <time>2011-04-26T13:53:45Z</time>
      </trkpt>
      <trkpt lat="47.05603" lon="5.48275">
        <ele>185.191162</ele>
        <time>2011-04-26T13:53:59Z</time>
      </trkpt>
      <trkpt lat="47.05503" lon="5.48304">
        <ele>185.671753</ele>
        <time>2011-04-26T13:54:15Z</time>
      </trkpt>
      <trkpt lat="47.05453" lon="5.48326">
        <ele>185.191162</ele>
        <time>2011-04-26T13:54:23Z</time>
      </trkpt>
      <trkpt lat="47.05426" lon="5.48331">
        <ele>185.191162</ele>
        <time>2011-04-26T13:54:27Z</time>
      </trkpt>
      <trkpt lat="47.05312" lon="5.48305">
        <ele>184.229858</ele>
        <time>2011-04-26T13:54:44Z</time>
      </trkpt>
      <trkpt lat="47.05205" lon="5.48219">
        <ele>185.191162</ele>
        <time>2011-04-26T13:55:02Z</time>
      </trkpt>
      <trkpt lat="47.05115" lon="5.48067">
        <ele>184.710571</ele>
        <time>2011-04-26T13:55:23Z</time>
      </trkpt>
      <trkpt lat="47.05087" lon="5.47987">
        <ele>184.710571</ele>
        <time>2011-04-26T13:55:32Z</time>
      </trkpt>
      <trkpt lat="47.05061" lon="5.47953">
        <ele>185.191162</ele>
        <time>2011-04-26T13:55:37Z</time>
      </trkpt>
      <trkpt lat="47.04877" lon="5.47823">
        <ele>184.710571</ele>
        <time>2011-04-26T13:56:06Z</time>
      </trkpt>
      <trkpt lat="47.04699" lon="5.47759">
        <ele>185.191162</ele>
        <time>2011-04-26T13:56:33Z</time>
      </trkpt>
      <trkpt lat="47.04571" lon="5.47636">
        <ele>184.710571</ele>
        <time>2011-04-26T13:56:55Z</time>
      </trkpt>
      <trkpt lat="47.04424" lon="5.47462">
        <ele>184.710571</ele>
        <time>2011-04-26T13:57:22Z</time>
      </trkpt>
      <trkpt lat="47.04296" lon="5.47366">
        <ele>184.710571</ele>
        <time>2011-04-26T13:57:43Z</time>
      </trkpt>
      <trkpt lat="47.04291" lon="5.47362">
        <ele>184.710571</ele>
        <time>2011-04-26T13:57:44Z</time>
      </trkpt>
      <trkpt lat="47.04258" lon="5.47377">
        <ele>185.191162</ele>
        <time>2011-04-26T13:57:51Z</time>
      </trkpt>
      <trkpt lat="47.04236" lon="5.47501">
        <ele>186.152466</ele>
        <time>2011-04-26T13:58:07Z</time>
      </trkpt>
      <trkpt lat="47.04245" lon="5.47701">
        <ele>187.11377</ele>
        <time>2011-04-26T13:58:30Z</time>
      </trkpt>
      <trkpt lat="47.04277" lon="5.4785">
        <ele>187.11377</ele>
        <time>2011-04-26T13:58:48Z</time>
      </trkpt>
      <trkpt lat="47.04324" lon="5.48032">
        <ele>187.59436</ele>
        <time>2011-04-26T13:59:11Z</time>
      </trkpt>
      <trkpt lat="47.04398" lon="5.48306">
        <ele>188.075073</ele>
        <time>2011-04-26T13:59:45Z</time>
      </trkpt>
      <trkpt lat="47.04454" lon="5.48522">
        <ele>188.555786</ele>
        <time>2011-04-26T14:00:11Z</time>
      </trkpt>
      <trkpt lat="47.04472" lon="5.48751">
        <ele>188.075073</ele>
        <time>2011-04-26T14:00:37Z</time>
      </trkpt>
      <trkpt lat="47.04517" lon="5.48818">
        <ele>188.555786</ele>
        <time>2011-04-26T14:00:48Z</time>
      </trkpt>
      <trkpt lat="47.04535" lon="5.48823">
        <ele>188.555786</ele>
        <time>2011-04-26T14:00:51Z</time>
      </trkpt>
      <trkpt lat="47.04565" lon="5.48829">
        <ele>188.555786</ele>
        <time>2011-04-26T14:00:56Z</time>
      </trkpt>
      <trkpt lat="47.04586" lon="5.48872">
        <ele>189.036377</ele>
        <time>2011-04-26T14:01:03Z</time>
      </trkpt>
      <trkpt lat="47.04566" lon="5.4909">
        <ele>189.516968</ele>
        <time>2011-04-26T14:01:28Z</time>
      </trkpt>
      <trkpt lat="47.04549" lon="5.49203">
        <ele>189.516968</ele>
        <time>2011-04-26T14:01:41Z</time>
      </trkpt>
      <trkpt lat="47.04513" lon="5.49354">
        <ele>189.036377</ele>
        <time>2011-04-26T14:01:58Z</time>
      </trkpt>
      <trkpt lat="47.04505" lon="5.49498">
        <ele>190.958984</ele>
        <time>2011-04-26T14:02:16Z</time>
      </trkpt>
      <trkpt lat="47.04502" lon="5.4953">
        <ele>189.036377</ele>
        <time>2011-04-26T14:02:27Z</time>
      </trkpt>
      <trkpt lat="47.045" lon="5.49563">
        <ele>190.958984</ele>
        <time>2011-04-26T14:02:46Z</time>
      </trkpt>
      <trkpt lat="47.04497" lon="5.496">
        <ele>190.958984</ele>
        <time>2011-04-26T14:02:52Z</time>
      </trkpt>
      <trkpt lat="47.04516" lon="5.49641">
        <ele>191.920288</ele>
        <time>2011-04-26T14:03:00Z</time>
      </trkpt>
      <trkpt lat="47.04575" lon="5.49688">
        <ele>193.843018</ele>
        <time>2011-04-26T14:03:16Z</time>
      </trkpt>
      <trkpt lat="47.04554" lon="5.49754">
        <ele>194.32373</ele>
        <time>2011-04-26T14:03:28Z</time>
      </trkpt>
      <trkpt lat="47.04513" lon="5.49897">
        <ele>193.843018</ele>
        <time>2011-04-26T14:03:49Z</time>
      </trkpt>
      <trkpt lat="47.04522" lon="5.4999">
        <ele>194.804321</ele>
        <time>2011-04-26T14:04:01Z</time>
      </trkpt>
      <trkpt lat="47.04555" lon="5.50059">
        <ele>195.284912</ele>
        <time>2011-04-26T14:04:12Z</time>
      </trkpt>
      <trkpt lat="47.04628" lon="5.50204">
        <ele>196.726929</ele>
        <time>2011-04-26T14:04:36Z</time>
      </trkpt>
      <trkpt lat="47.04661" lon="5.50273">
        <ele>197.688232</ele>
        <time>2011-04-26T14:04:47Z</time>
      </trkpt>
      <trkpt lat="47.04669" lon="5.50318">
        <ele>197.20752</ele>
        <time>2011-04-26T14:04:53Z</time>
      </trkpt>
      <trkpt lat="47.04642" lon="5.50424">
        <ele>197.688232</ele>
        <time>2011-04-26T14:05:07Z</time>
      </trkpt>
      <trkpt lat="47.04585" lon="5.50535">
        <ele>197.688232</ele>
        <time>2011-04-26T14:05:23Z</time>
      </trkpt>
      <trkpt lat="47.04527" lon="5.50613">
        <ele>197.688232</ele>
        <time>2011-04-26T14:05:36Z</time>
      </trkpt>
      <trkpt lat="47.04446" lon="5.50722">
        <ele>195.765625</ele>
        <time>2011-04-26T14:05:53Z</time>
      </trkpt>
      <trkpt lat="47.04349" lon="5.50818">
        <ele>193.843018</ele>
        <time>2011-04-26T14:06:10Z</time>
      </trkpt>
      <trkpt lat="47.04253" lon="5.50843">
        <ele>192.881714</ele>
        <time>2011-04-26T14:06:23Z</time>
      </trkpt>
      <trkpt lat="47.04206" lon="5.50882">
        <ele>194.32373</ele>
        <time>2011-04-26T14:06:30Z</time>
      </trkpt>
      <trkpt lat="47.04145" lon="5.51019">
        <ele>193.843018</ele>
        <time>2011-04-26T14:06:46Z</time>
      </trkpt>
      <trkpt lat="47.04055" lon="5.51191">
        <ele>194.804321</ele>
        <time>2011-04-26T14:07:09Z</time>
      </trkpt>
      <trkpt lat="47.04006" lon="5.51254">
        <ele>195.765625</ele>
        <time>2011-04-26T14:07:19Z</time>
      </trkpt>
      <trkpt lat="47.03956" lon="5.51402">
        <ele>195.284912</ele>
        <time>2011-04-26T14:07:36Z</time>
      </trkpt>
      <trkpt lat="47.03954" lon="5.51626">
        <ele>193.843018</ele>
        <time>2011-04-26T14:07:59Z</time>
      </trkpt>
      <trkpt lat="47.03956" lon="5.5171">
        <ele>194.32373</ele>
        <time>2011-04-26T14:08:08Z</time>
      </trkpt>
      <trkpt lat="47.03976" lon="5.51743">
        <ele>196.246338</ele>
        <time>2011-04-26T14:08:14Z</time>
      </trkpt>
      <trkpt lat="47.03997" lon="5.51747">
        <ele>196.246338</ele>
        <time>2011-04-26T14:08:18Z</time>
      </trkpt>
      <trkpt lat="47.0408" lon="5.51731">
        <ele>200.572266</ele>
        <time>2011-04-26T14:08:35Z</time>
      </trkpt>
      <trkpt lat="47.04125" lon="5.51723">
        <ele>201.533569</ele>
        <time>2011-04-26T14:08:44Z</time>
      </trkpt>
      <trkpt lat="47.04225" lon="5.51715">
        <ele>202.975464</ele>
        <time>2011-04-26T14:09:04Z</time>
      </trkpt>
      <trkpt lat="47.0426" lon="5.5175">
        <ele>203.456177</ele>
        <time>2011-04-26T14:09:12Z</time>
      </trkpt>
      <trkpt lat="47.04287" lon="5.51846">
        <ele>204.898071</ele>
        <time>2011-04-26T14:09:26Z</time>
      </trkpt>
      <trkpt lat="47.04286" lon="5.5198">
        <ele>207.782104</ele>
        <time>2011-04-26T14:09:44Z</time>
      </trkpt>
      <trkpt lat="47.04277" lon="5.5211">
        <ele>210.185425</ele>
        <time>2011-04-26T14:10:01Z</time>
      </trkpt>
      <trkpt lat="47.04291" lon="5.52153">
        <ele>210.666016</ele>
        <time>2011-04-26T14:10:08Z</time>
      </trkpt>
      <trkpt lat="47.04336" lon="5.52195">
        <ele>213.069336</ele>
        <time>2011-04-26T14:10:20Z</time>
      </trkpt>
      <trkpt lat="47.04356" lon="5.52236">
        <ele>214.51123</ele>
        <time>2011-04-26T14:10:32Z</time>
      </trkpt>
      <trkpt lat="47.04352" lon="5.5225">
        <ele>214.991943</ele>
        <time>2011-04-26T14:10:43Z</time>
      </trkpt>
      <trkpt lat="47.04318" lon="5.52323">
        <ele>215.953247</ele>
        <time>2011-04-26T14:11:00Z</time>
      </trkpt>
      <trkpt lat="47.04239" lon="5.52479">
        <ele>217.395386</ele>
        <time>2011-04-26T14:11:28Z</time>
      </trkpt>
      <trkpt lat="47.04159" lon="5.52632">
        <ele>218.356567</ele>
        <time>2011-04-26T14:11:52Z</time>
      </trkpt>
      <trkpt lat="47.04065" lon="5.5281">
        <ele>219.317993</ele>
        <time>2011-04-26T14:12:17Z</time>
      </trkpt>
      <trkpt lat="47.03988" lon="5.52923">
        <ele>215.953247</ele>
        <time>2011-04-26T14:12:33Z</time>
      </trkpt>
      <trkpt lat="47.03913" lon="5.53047">
        <ele>215.953247</ele>
        <time>2011-04-26T14:12:47Z</time>
      </trkpt>
      <trkpt lat="47.03877" lon="5.53122">
        <ele>219.317993</ele>
        <time>2011-04-26T14:12:57Z</time>
      </trkpt>
      <trkpt lat="47.03782" lon="5.53341">
        <ele>219.317993</ele>
        <time>2011-04-26T14:13:25Z</time>
      </trkpt>
      <trkpt lat="47.03673" lon="5.53581">
        <ele>218.356567</ele>
        <time>2011-04-26T14:13:54Z</time>
      </trkpt>
      <trkpt lat="47.03625" lon="5.53651">
        <ele>215.472656</ele>
        <time>2011-04-26T14:14:02Z</time>
      </trkpt>
      <trkpt lat="47.03591" lon="5.53731">
        <ele>211.627441</ele>
        <time>2011-04-26T14:14:09Z</time>
      </trkpt>
      <trkpt lat="47.03571" lon="5.53837">
        <ele>208.743408</ele>
        <time>2011-04-26T14:14:17Z</time>
      </trkpt>
      <trkpt lat="47.03567" lon="5.53908">
        <ele>205.378784</ele>
        <time>2011-04-26T14:14:22Z</time>
      </trkpt>
      <trkpt lat="47.03558" lon="5.54084">
        <ele>203.456177</ele>
        <time>2011-04-26T14:14:36Z</time>
      </trkpt>
      <trkpt lat="47.03555" lon="5.54356">
        <ele>203.93689</ele>
        <time>2011-04-26T14:15:01Z</time>
      </trkpt>
      <trkpt lat="47.03541" lon="5.54437">
        <ele>207.301392</ele>
        <time>2011-04-26T14:15:10Z</time>
      </trkpt>
      <trkpt lat="47.03506" lon="5.54502">
        <ele>210.185425</ele>
        <time>2011-04-26T14:15:21Z</time>
      </trkpt>
      <trkpt lat="47.03473" lon="5.54534">
        <ele>214.03064</ele>
        <time>2011-04-26T14:15:29Z</time>
      </trkpt>
      <trkpt lat="47.03468" lon="5.54537">
        <ele>214.51123</ele>
        <time>2011-04-26T14:15:30Z</time>
      </trkpt>
      <trkpt lat="47.034" lon="5.54568">
        <ele>217.875977</ele>
        <time>2011-04-26T14:15:44Z</time>
      </trkpt>
      <trkpt lat="47.03327" lon="5.5458">
        <ele>220.759888</ele>
        <time>2011-04-26T14:15:59Z</time>
      </trkpt>
      <trkpt lat="47.03241" lon="5.54626">
        <ele>222.201782</ele>
        <time>2011-04-26T14:16:16Z</time>
      </trkpt>
      <trkpt lat="47.03165" lon="5.54766">
        <ele>223.163208</ele>
        <time>2011-04-26T14:16:37Z</time>
      </trkpt>
      <trkpt lat="47.03067" lon="5.54957">
        <ele>222.682495</ele>
        <time>2011-04-26T14:17:05Z</time>
      </trkpt>
      <trkpt lat="47.02988" lon="5.55103">
        <ele>222.682495</ele>
        <time>2011-04-26T14:17:29Z</time>
      </trkpt>
      <trkpt lat="47.0296" lon="5.55161">
        <ele>222.201782</ele>
        <time>2011-04-26T14:17:38Z</time>
      </trkpt>
      <trkpt lat="47.02926" lon="5.55215">
        <ele>221.721191</ele>
        <time>2011-04-26T14:17:47Z</time>
      </trkpt>
      <trkpt lat="47.02834" lon="5.55347">
        <ele>223.163208</ele>
        <time>2011-04-26T14:18:10Z</time>
      </trkpt>
      <trkpt lat="47.0276" lon="5.5547">
        <ele>221.721191</ele>
        <time>2011-04-26T14:18:29Z</time>
      </trkpt>
      <trkpt lat="47.02722" lon="5.55606">
        <ele>220.279175</ele>
        <time>2011-04-26T14:18:44Z</time>
      </trkpt>
      <trkpt lat="47.02707" lon="5.55669">
        <ele>220.279175</ele>
        <time>2011-04-26T14:18:50Z</time>
      </trkpt>
      <trkpt lat="47.02686" lon="5.55707">
        <ele>220.759888</ele>
        <time>2011-04-26T14:18:55Z</time>
      </trkpt>
      <trkpt lat="47.02638" lon="5.55769">
        <ele>219.317993</ele>
        <time>2011-04-26T14:19:05Z</time>
      </trkpt>
      <trkpt lat="47.02578" lon="5.55903">
        <ele>222.682495</ele>
        <time>2011-04-26T14:19:22Z</time>
      </trkpt>
      <trkpt lat="47.02549" lon="5.5599">
        <ele>225.085938</ele>
        <time>2011-04-26T14:19:33Z</time>
      </trkpt>
      <trkpt lat="47.02542" lon="5.56015">
        <ele>223.163208</ele>
        <time>2011-04-26T14:19:36Z</time>
      </trkpt>
      <trkpt lat="47.0251" lon="5.56196">
        <ele>223.643799</ele>
        <time>2011-04-26T14:19:57Z</time>
      </trkpt>
      <trkpt lat="47.02497" lon="5.56282">
        <ele>222.682495</ele>
        <time>2011-04-26T14:20:06Z</time>
      </trkpt>
      <trkpt lat="47.02462" lon="5.56321">
        <ele>221.721191</ele>
        <time>2011-04-26T14:20:13Z</time>
      </trkpt>
      <trkpt lat="47.02439" lon="5.56318">
        <ele>220.759888</ele>
        <time>2011-04-26T14:20:16Z</time>
      </trkpt>
      <trkpt lat="47.02392" lon="5.56347">
        <ele>219.317993</ele>
        <time>2011-04-26T14:20:22Z</time>
      </trkpt>
      <trkpt lat="47.02353" lon="5.56427">
        <ele>215.953247</ele>
        <time>2011-04-26T14:20:29Z</time>
      </trkpt>
      <trkpt lat="47.02326" lon="5.5655">
        <ele>216.914673</ele>
        <time>2011-04-26T14:20:40Z</time>
      </trkpt>
      <trkpt lat="47.02315" lon="5.56684">
        <ele>220.279175</ele>
        <time>2011-04-26T14:20:56Z</time>
      </trkpt>
      <trkpt lat="47.02276" lon="5.56866">
        <ele>221.240601</ele>
        <time>2011-04-26T14:21:19Z</time>
      </trkpt>
      <trkpt lat="47.022" lon="5.57019">
        <ele>217.875977</ele>
        <time>2011-04-26T14:21:38Z</time>
      </trkpt>
      <trkpt lat="47.02178" lon="5.57126">
        <ele>219.317993</ele>
        <time>2011-04-26T14:21:50Z</time>
      </trkpt>
      <trkpt lat="47.02169" lon="5.57236">
        <ele>222.682495</ele>
        <time>2011-04-26T14:22:02Z</time>
      </trkpt>
      <trkpt lat="47.02165" lon="5.57435">
        <ele>224.605225</ele>
        <time>2011-04-26T14:22:25Z</time>
      </trkpt>
      <trkpt lat="47.02164" lon="5.57496">
        <ele>224.124512</ele>
        <time>2011-04-26T14:22:31Z</time>
      </trkpt>
      <trkpt lat="47.02129" lon="5.5762">
        <ele>222.201782</ele>
        <time>2011-04-26T14:22:45Z</time>
      </trkpt>
      <trkpt lat="47.02042" lon="5.57828">
        <ele>222.201782</ele>
        <time>2011-04-26T14:23:10Z</time>
      </trkpt>
      <trkpt lat="47.02028" lon="5.57852">
        <ele>220.759888</ele>
        <time>2011-04-26T14:23:13Z</time>
      </trkpt>
      <trkpt lat="47.02003" lon="5.57892">
        <ele>219.798584</ele>
        <time>2011-04-26T14:23:18Z</time>
      </trkpt>
      <trkpt lat="47.01958" lon="5.57965">
        <ele>218.356567</ele>
        <time>2011-04-26T14:23:27Z</time>
      </trkpt>
      <trkpt lat="47.01858" lon="5.58112">
        <ele>215.472656</ele>
        <time>2011-04-26T14:23:46Z</time>
      </trkpt>
      <trkpt lat="47.01848" lon="5.5813">
        <ele>215.472656</ele>
        <time>2011-04-26T14:23:48Z</time>
      </trkpt>
      <trkpt lat="47.01826" lon="5.58144">
        <ele>214.51123</ele>
        <time>2011-04-26T14:23:51Z</time>
      </trkpt>
      <trkpt lat="47.01809" lon="5.58141">
        <ele>213.550049</ele>
        <time>2011-04-26T14:23:53Z</time>
      </trkpt>
      <trkpt lat="47.01791" lon="5.58133">
        <ele>212.108032</ele>
        <time>2011-04-26T14:23:55Z</time>
      </trkpt>
      <trkpt lat="47.01773" lon="5.58127">
        <ele>211.627441</ele>
        <time>2011-04-26T14:23:57Z</time>
      </trkpt>
      <trkpt lat="47.01741" lon="5.5816">
        <ele>209.224121</ele>
        <time>2011-04-26T14:24:02Z</time>
      </trkpt>
      <trkpt lat="47.01725" lon="5.5836">
        <ele>209.224121</ele>
        <time>2011-04-26T14:24:19Z</time>
      </trkpt>
      <trkpt lat="47.01723" lon="5.58441">
        <ele>210.185425</ele>
        <time>2011-04-26T14:24:27Z</time>
      </trkpt>
      <trkpt lat="47.0171" lon="5.585">
        <ele>208.262817</ele>
        <time>2011-04-26T14:24:33Z</time>
      </trkpt>
      <trkpt lat="47.01676" lon="5.5865">
        <ele>209.224121</ele>
        <time>2011-04-26T14:24:48Z</time>
      </trkpt>
      <trkpt lat="47.01659" lon="5.58914">
        <ele>209.224121</ele>
        <time>2011-04-26T14:25:14Z</time>
      </trkpt>
      <trkpt lat="47.01669" lon="5.59052">
        <ele>210.185425</ele>
        <time>2011-04-26T14:25:28Z</time>
      </trkpt>
      <trkpt lat="47.01692" lon="5.59167">
        <ele>209.224121</ele>
        <time>2011-04-26T14:25:40Z</time>
      </trkpt>
      <trkpt lat="47.01674" lon="5.59224">
        <ele>209.224121</ele>
        <time>2011-04-26T14:25:47Z</time>
      </trkpt>
      <trkpt lat="47.01662" lon="5.59234">
        <ele>209.704834</ele>
        <time>2011-04-26T14:25:49Z</time>
      </trkpt>
      <trkpt lat="47.01585" lon="5.59286">
        <ele>208.743408</ele>
        <time>2011-04-26T14:26:02Z</time>
      </trkpt>
      <trkpt lat="47.01555" lon="5.59318">
        <ele>210.185425</ele>
        <time>2011-04-26T14:26:08Z</time>
      </trkpt>
      <trkpt lat="47.0155" lon="5.5936">
        <ele>210.185425</ele>
        <time>2011-04-26T14:26:13Z</time>
      </trkpt>
      <trkpt lat="47.01569" lon="5.59445">
        <ele>209.704834</ele>
        <time>2011-04-26T14:26:23Z</time>
      </trkpt>
      <trkpt lat="47.01573" lon="5.59505">
        <ele>211.146729</ele>
        <time>2011-04-26T14:26:30Z</time>
      </trkpt>
      <trkpt lat="47.01603" lon="5.59588">
        <ele>214.03064</ele>
        <time>2011-04-26T14:26:43Z</time>
      </trkpt>
      <trkpt lat="47.01632" lon="5.59656">
        <ele>217.395386</ele>
        <time>2011-04-26T14:26:55Z</time>
      </trkpt>
      <trkpt lat="47.01647" lon="5.59694">
        <ele>219.317993</ele>
        <time>2011-04-26T14:27:02Z</time>
      </trkpt>
      <trkpt lat="47.0169" lon="5.59794">
        <ele>222.682495</ele>
        <time>2011-04-26T14:27:21Z</time>
      </trkpt>
      <trkpt lat="47.01713" lon="5.59866">
        <ele>226.047119</ele>
        <time>2011-04-26T14:27:34Z</time>
      </trkpt>
      <trkpt lat="47.0172" lon="5.59963">
        <ele>228.931152</ele>
        <time>2011-04-26T14:27:49Z</time>
      </trkpt>
      <trkpt lat="47.01725" lon="5.60039">
        <ele>227.969727</ele>
        <time>2011-04-26T14:28:05Z</time>
      </trkpt>
      <trkpt lat="47.0173" lon="5.6008">
        <ele>228.450439</ele>
        <time>2011-04-26T14:28:18Z</time>
      </trkpt>
      <trkpt lat="47.01731" lon="5.60092">
        <ele>227.969727</ele>
        <time>2011-04-26T14:28:23Z</time>
      </trkpt>
      <trkpt lat="47.01731" lon="5.60123">
        <ele>228.450439</ele>
        <time>2011-04-26T14:28:33Z</time>
      </trkpt>
      <trkpt lat="47.01731" lon="5.60145">
        <ele>229.411743</ele>
        <time>2011-04-26T14:28:41Z</time>
      </trkpt>
      <trkpt lat="47.01733" lon="5.60165">
        <ele>230.373047</ele>
        <time>2011-04-26T14:28:47Z</time>
      </trkpt>
      <trkpt lat="47.01733" lon="5.60175">
        <ele>228.931152</ele>
        <time>2011-04-26T14:28:50Z</time>
      </trkpt>
      <trkpt lat="47.01741" lon="5.60288">
        <ele>228.931152</ele>
        <time>2011-04-26T14:29:13Z</time>
      </trkpt>
      <trkpt lat="47.01751" lon="5.60478">
        <ele>229.411743</ele>
        <time>2011-04-26T14:29:42Z</time>
      </trkpt>
      <trkpt lat="47.0176" lon="5.60637">
        <ele>228.931152</ele>
        <time>2011-04-26T14:30:05Z</time>
      </trkpt>
      <trkpt lat="47.01771" lon="5.60788">
        <ele>228.931152</ele>
        <time>2011-04-26T14:30:26Z</time>
      </trkpt>
      <trkpt lat="47.0178" lon="5.6093">
        <ele>225.566528</ele>
        <time>2011-04-26T14:30:42Z</time>
      </trkpt>
      <trkpt lat="47.01788" lon="5.61032">
        <ele>223.163208</ele>
        <time>2011-04-26T14:30:50Z</time>
      </trkpt>
      <trkpt lat="47.01797" lon="5.61164">
        <ele>220.279175</ele>
        <time>2011-04-26T14:31:00Z</time>
      </trkpt>
      <trkpt lat="47.01811" lon="5.61352">
        <ele>221.240601</ele>
        <time>2011-04-26T14:31:18Z</time>
      </trkpt>
      <trkpt lat="47.01816" lon="5.61428">
        <ele>224.124512</ele>
        <time>2011-04-26T14:31:28Z</time>
      </trkpt>
      <trkpt lat="47.01822" lon="5.61512">
        <ele>227.489136</ele>
        <time>2011-04-26T14:31:40Z</time>
      </trkpt>
      <trkpt lat="47.01822" lon="5.61518">
        <ele>227.489136</ele>
        <time>2011-04-26T14:31:41Z</time>
      </trkpt>
      <trkpt lat="47.01826" lon="5.61648">
        <ele>231.334351</ele>
        <time>2011-04-26T14:31:59Z</time>
      </trkpt>
      <trkpt lat="47.01826" lon="5.61663">
        <ele>231.814941</ele>
        <time>2011-04-26T14:32:01Z</time>
      </trkpt>
      <trkpt lat="47.01832" lon="5.61835">
        <ele>232.295776</ele>
        <time>2011-04-26T14:32:22Z</time>
      </trkpt>
      <trkpt lat="47.01875" lon="5.61986">
        <ele>234.218384</ele>
        <time>2011-04-26T14:32:42Z</time>
      </trkpt>
      <trkpt lat="47.0193" lon="5.62181">
        <ele>232.776489</ele>
        <time>2011-04-26T14:33:05Z</time>
      </trkpt>
      <trkpt lat="47.02006" lon="5.62346">
        <ele>230.373047</ele>
        <time>2011-04-26T14:33:25Z</time>
      </trkpt>
      <trkpt lat="47.02099" lon="5.62545">
        <ele>229.411743</ele>
        <time>2011-04-26T14:33:48Z</time>
      </trkpt>
      <trkpt lat="47.0211" lon="5.62673">
        <ele>229.411743</ele>
        <time>2011-04-26T14:34:01Z</time>
      </trkpt>
      <trkpt lat="47.02084" lon="5.62853">
        <ele>232.295776</ele>
        <time>2011-04-26T14:34:22Z</time>
      </trkpt>
      <trkpt lat="47.02069" lon="5.62963">
        <ele>235.179688</ele>
        <time>2011-04-26T14:34:36Z</time>
      </trkpt>
      <trkpt lat="47.02052" lon="5.63121">
        <ele>237.582886</ele>
        <time>2011-04-26T14:34:58Z</time>
      </trkpt>
      <trkpt lat="47.02061" lon="5.63286">
        <ele>238.063599</ele>
        <time>2011-04-26T14:35:18Z</time>
      </trkpt>
      <trkpt lat="47.02071" lon="5.6343">
        <ele>238.063599</ele>
        <time>2011-04-26T14:35:33Z</time>
      </trkpt>
      <trkpt lat="47.02073" lon="5.6345">
        <ele>237.102295</ele>
        <time>2011-04-26T14:35:35Z</time>
      </trkpt>
      <trkpt lat="47.02078" lon="5.63498">
        <ele>236.621704</ele>
        <time>2011-04-26T14:35:40Z</time>
      </trkpt>
      <trkpt lat="47.02084" lon="5.63658">
        <ele>234.218384</ele>
        <time>2011-04-26T14:35:55Z</time>
      </trkpt>
      <trkpt lat="47.02104" lon="5.63797">
        <ele>232.295776</ele>
        <time>2011-04-26T14:36:08Z</time>
      </trkpt>
      <trkpt lat="47.02098" lon="5.63852">
        <ele>231.334351</ele>
        <time>2011-04-26T14:36:13Z</time>
      </trkpt>
      <trkpt lat="47.02068" lon="5.63946">
        <ele>229.411743</ele>
        <time>2011-04-26T14:36:23Z</time>
      </trkpt>
      <trkpt lat="47.02044" lon="5.6398">
        <ele>227.489136</ele>
        <time>2011-04-26T14:36:27Z</time>
      </trkpt>
      <trkpt lat="47.01982" lon="5.64038">
        <ele>224.605225</ele>
        <time>2011-04-26T14:36:35Z</time>
      </trkpt>
      <trkpt lat="47.01948" lon="5.64086">
        <ele>221.240601</ele>
        <time>2011-04-26T14:36:40Z</time>
      </trkpt>
      <trkpt lat="47.0193" lon="5.64112">
        <ele>219.798584</ele>
        <time>2011-04-26T14:36:43Z</time>
      </trkpt>
      <trkpt lat="47.01909" lon="5.64137">
        <ele>218.83728</ele>
        <time>2011-04-26T14:36:46Z</time>
      </trkpt>
      <trkpt lat="47.01859" lon="5.6417">
        <ele>216.914673</ele>
        <time>2011-04-26T14:36:52Z</time>
      </trkpt>
      <trkpt lat="47.01814" lon="5.6418">
        <ele>216.914673</ele>
        <time>2011-04-26T14:36:57Z</time>
      </trkpt>
      <trkpt lat="47.01775" lon="5.64165">
        <ele>215.953247</ele>
        <time>2011-04-26T14:37:02Z</time>
      </trkpt>
      <trkpt lat="47.01674" lon="5.64189">
        <ele>217.395386</ele>
        <time>2011-04-26T14:37:16Z</time>
      </trkpt>
      <trkpt lat="47.01571" lon="5.64243">
        <ele>215.953247</ele>
        <time>2011-04-26T14:37:32Z</time>
      </trkpt>
      <trkpt lat="47.01531" lon="5.64255">
        <ele>215.472656</ele>
        <time>2011-04-26T14:37:38Z</time>
      </trkpt>
      <trkpt lat="47.01501" lon="5.64295">
        <ele>215.953247</ele>
        <time>2011-04-26T14:37:44Z</time>
      </trkpt>
      <trkpt lat="47.01433" lon="5.64504">
        <ele>216.43396</ele>
        <time>2011-04-26T14:38:07Z</time>
      </trkpt>
      <trkpt lat="47.01326" lon="5.64673">
        <ele>217.395386</ele>
        <time>2011-04-26T14:38:30Z</time>
      </trkpt>
      <trkpt lat="47.0124" lon="5.64847">
        <ele>216.43396</ele>
        <time>2011-04-26T14:38:52Z</time>
      </trkpt>
      <trkpt lat="47.01137" lon="5.65089">
        <ele>216.914673</ele>
        <time>2011-04-26T14:39:20Z</time>
      </trkpt>
      <trkpt lat="47.01087" lon="5.65186">
        <ele>215.953247</ele>
        <time>2011-04-26T14:39:36Z</time>
      </trkpt>
      <trkpt lat="47.01056" lon="5.65229">
        <ele>215.472656</ele>
        <time>2011-04-26T14:39:45Z</time>
      </trkpt>
      <trkpt lat="47.01033" lon="5.65258">
        <ele>215.472656</ele>
        <time>2011-04-26T14:39:53Z</time>
      </trkpt>
      <trkpt lat="47.01006" lon="5.65288">
        <ele>215.953247</ele>
        <time>2011-04-26T14:40:02Z</time>
      </trkpt>
      <trkpt lat="47.00916" lon="5.65389">
        <ele>217.395386</ele>
        <time>2011-04-26T14:40:25Z</time>
      </trkpt>
      <trkpt lat="47.00832" lon="5.65484">
        <ele>217.395386</ele>
        <time>2011-04-26T14:40:44Z</time>
      </trkpt>
      <trkpt lat="47.00827" lon="5.6549">
        <ele>217.875977</ele>
        <time>2011-04-26T14:40:45Z</time>
      </trkpt>
      <trkpt lat="47.00779" lon="5.65611">
        <ele>217.875977</ele>
        <time>2011-04-26T14:41:03Z</time>
      </trkpt>
      <trkpt lat="47.00712" lon="5.65882">
        <ele>218.356567</ele>
        <time>2011-04-26T14:41:37Z</time>
      </trkpt>
      <trkpt lat="47.00671" lon="5.66027">
        <ele>218.356567</ele>
        <time>2011-04-26T14:41:55Z</time>
      </trkpt>
      <trkpt lat="47.00581" lon="5.66313">
        <ele>218.356567</ele>
        <time>2011-04-26T14:42:30Z</time>
      </trkpt>
      <trkpt lat="47.00496" lon="5.66568">
        <ele>218.83728</ele>
        <time>2011-04-26T14:43:00Z</time>
      </trkpt>
      <trkpt lat="47.00432" lon="5.66634">
        <ele>218.356567</ele>
        <time>2011-04-26T14:43:12Z</time>
      </trkpt>
      <trkpt lat="47.00322" lon="5.66699">
        <ele>221.240601</ele>
        <time>2011-04-26T14:43:32Z</time>
      </trkpt>
      <trkpt lat="47.00284" lon="5.66728">
        <ele>221.240601</ele>
        <time>2011-04-26T14:43:41Z</time>
      </trkpt>
      <trkpt lat="47.00271" lon="5.66735">
        <ele>221.240601</ele>
        <time>2011-04-26T14:43:44Z</time>
      </trkpt>
      <trkpt lat="47.00249" lon="5.66754">
        <ele>221.240601</ele>
        <time>2011-04-26T14:43:49Z</time>
      </trkpt>
      <trkpt lat="47.00153" lon="5.66844">
        <ele>219.317993</ele>
        <time>2011-04-26T14:44:09Z</time>
      </trkpt>
      <trkpt lat="47.00141" lon="5.66854">
        <ele>219.798584</ele>
        <time>2011-04-26T14:44:11Z</time>
      </trkpt>
      <trkpt lat="47.00039" lon="5.66891">
        <ele>219.798584</ele>
        <time>2011-04-26T14:44:27Z</time>
      </trkpt>
      <trkpt lat="46.99905" lon="5.66909">
        <ele>217.395386</ele>
        <time>2011-04-26T14:44:47Z</time>
      </trkpt>
      <trkpt lat="46.99898" lon="5.66909">
        <ele>217.395386</ele>
        <time>2011-04-26T14:44:48Z</time>
      </trkpt>
      <trkpt lat="46.99861" lon="5.66883">
        <ele>218.356567</ele>
        <time>2011-04-26T14:44:54Z</time>
      </trkpt>
      <trkpt lat="46.99796" lon="5.66785">
        <ele>218.356567</ele>
        <time>2011-04-26T14:45:08Z</time>
      </trkpt>
      <trkpt lat="46.9976" lon="5.6666">
        <ele>218.83728</ele>
        <time>2011-04-26T14:45:22Z</time>
      </trkpt>
      <trkpt lat="46.99757" lon="5.66652">
        <ele>218.83728</ele>
        <time>2011-04-26T14:45:23Z</time>
      </trkpt>
      <trkpt lat="46.99721" lon="5.66621">
        <ele>219.317993</ele>
        <time>2011-04-26T14:45:30Z</time>
      </trkpt>
      <trkpt lat="46.99603" lon="5.66616">
        <ele>219.317993</ele>
        <time>2011-04-26T14:45:49Z</time>
      </trkpt>
      <trkpt lat="46.99511" lon="5.66618">
        <ele>219.317993</ele>
        <time>2011-04-26T14:46:04Z</time>
      </trkpt>
      <trkpt lat="46.99441" lon="5.66639">
        <ele>218.83728</ele>
        <time>2011-04-26T14:46:19Z</time>
      </trkpt>
      <trkpt lat="46.99435" lon="5.66641">
        <ele>219.317993</ele>
        <time>2011-04-26T14:46:29Z</time>
      </trkpt>
      <trkpt lat="46.99399" lon="5.6666">
        <ele>218.83728</ele>
        <time>2011-04-26T14:46:44Z</time>
      </trkpt>
      <trkpt lat="46.99317" lon="5.66687">
        <ele>218.356567</ele>
        <time>2011-04-26T14:47:04Z</time>
      </trkpt>
      <trkpt lat="46.99225" lon="5.66715">
        <ele>218.83728</ele>
        <time>2011-04-26T14:47:21Z</time>
      </trkpt>
      <trkpt lat="46.99163" lon="5.66741">
        <ele>220.279175</ele>
        <time>2011-04-26T14:47:33Z</time>
      </trkpt>
      <trkpt lat="46.99142" lon="5.66747">
        <ele>219.317993</ele>
        <time>2011-04-26T14:47:37Z</time>
      </trkpt>
      <trkpt lat="46.99111" lon="5.66735">
        <ele>219.317993</ele>
        <time>2011-04-26T14:47:43Z</time>
      </trkpt>
      <trkpt lat="46.99059" lon="5.66681">
        <ele>219.317993</ele>
        <time>2011-04-26T14:47:54Z</time>
      </trkpt>
      <trkpt lat="46.99025" lon="5.66674">
        <ele>219.798584</ele>
        <time>2011-04-26T14:48:00Z</time>
      </trkpt>
      <trkpt lat="46.9887" lon="5.66713">
        <ele>220.759888</ele>
        <time>2011-04-26T14:48:25Z</time>
      </trkpt>
      <trkpt lat="46.98748" lon="5.66736">
        <ele>224.124512</ele>
        <time>2011-04-26T14:48:47Z</time>
      </trkpt>
      <trkpt lat="46.98669" lon="5.66734">
        <ele>227.489136</ele>
        <time>2011-04-26T14:49:02Z</time>
      </trkpt>
      <trkpt lat="46.9862" lon="5.66756">
        <ele>226.047119</ele>
        <time>2011-04-26T14:49:12Z</time>
      </trkpt>
      <trkpt lat="46.98553" lon="5.66867">
        <ele>224.124512</ele>
        <time>2011-04-26T14:49:28Z</time>
      </trkpt>
      <trkpt lat="46.98494" lon="5.66914">
        <ele>225.085938</ele>
        <time>2011-04-26T14:49:39Z</time>
      </trkpt>
      <trkpt lat="46.9844" lon="5.6692">
        <ele>228.450439</ele>
        <time>2011-04-26T14:49:50Z</time>
      </trkpt>
      <trkpt lat="46.98417" lon="5.66921">
        <ele>229.892334</ele>
        <time>2011-04-26T14:49:57Z</time>
      </trkpt>
      <trkpt lat="46.98391" lon="5.66924">
        <ele>232.295776</ele>
        <time>2011-04-26T14:50:06Z</time>
      </trkpt>
      <trkpt lat="46.98329" lon="5.6693">
        <ele>234.218384</ele>
        <time>2011-04-26T14:50:17Z</time>
      </trkpt>
      <trkpt lat="46.98315" lon="5.66932">
        <ele>234.218384</ele>
        <time>2011-04-26T14:50:20Z</time>
      </trkpt>
      <trkpt lat="46.983" lon="5.66936">
        <ele>234.699097</ele>
        <time>2011-04-26T14:50:23Z</time>
      </trkpt>
      <trkpt lat="46.98252" lon="5.6694">
        <ele>236.140991</ele>
        <time>2011-04-26T14:50:33Z</time>
      </trkpt>
      <trkpt lat="46.9824" lon="5.66941">
        <ele>237.102295</ele>
        <time>2011-04-26T14:50:36Z</time>
      </trkpt>
      <trkpt lat="46.98181" lon="5.66945">
        <ele>239.505493</ele>
        <time>2011-04-26T14:50:48Z</time>
      </trkpt>
      <trkpt lat="46.98165" lon="5.66947">
        <ele>239.986206</ele>
        <time>2011-04-26T14:50:51Z</time>
      </trkpt>
      <trkpt lat="46.98101" lon="5.66958">
        <ele>241.428223</ele>
        <time>2011-04-26T14:51:04Z</time>
      </trkpt>
      <trkpt lat="46.98021" lon="5.66966">
        <ele>243.831543</ele>
        <time>2011-04-26T14:51:20Z</time>
      </trkpt>
      <trkpt lat="46.9793" lon="5.66974">
        <ele>245.273438</ele>
        <time>2011-04-26T14:51:38Z</time>
      </trkpt>
      <trkpt lat="46.97837" lon="5.66984">
        <ele>246.715454</ele>
        <time>2011-04-26T14:51:56Z</time>
      </trkpt>
      <trkpt lat="46.97797" lon="5.66989">
        <ele>248.157593</ele>
        <time>2011-04-26T14:52:03Z</time>
      </trkpt>
      <trkpt lat="46.9775" lon="5.66994">
        <ele>249.599487</ele>
        <time>2011-04-26T14:52:12Z</time>
      </trkpt>
      <trkpt lat="46.97689" lon="5.66999">
        <ele>251.041382</ele>
        <time>2011-04-26T14:52:24Z</time>
      </trkpt>
      <trkpt lat="46.97685" lon="5.66999">
        <ele>251.041382</ele>
        <time>2011-04-26T14:52:25Z</time>
      </trkpt>
      <trkpt lat="46.97645" lon="5.67">
        <ele>251.041382</ele>
        <time>2011-04-26T14:52:33Z</time>
      </trkpt>
      <trkpt lat="46.97617" lon="5.67">
        <ele>250.560791</ele>
        <time>2011-04-26T14:52:38Z</time>
      </trkpt>
      <trkpt lat="46.97557" lon="5.6699">
        <ele>249.599487</ele>
        <time>2011-04-26T14:52:49Z</time>
      </trkpt>
      <trkpt lat="46.97523" lon="5.66985">
        <ele>249.118774</ele>
        <time>2011-04-26T14:52:56Z</time>
      </trkpt>
      <trkpt lat="46.97465" lon="5.66969">
        <ele>248.638184</ele>
        <time>2011-04-26T14:53:06Z</time>
      </trkpt>
      <trkpt lat="46.97459" lon="5.66966">
        <ele>248.638184</ele>
        <time>2011-04-26T14:53:07Z</time>
      </trkpt>
      <trkpt lat="46.97395" lon="5.66953">
        <ele>248.638184</ele>
        <time>2011-04-26T14:53:18Z</time>
      </trkpt>
      <trkpt lat="46.97373" lon="5.66945">
        <ele>248.638184</ele>
        <time>2011-04-26T14:53:22Z</time>
      </trkpt>
      <trkpt lat="46.97265" lon="5.66918">
        <ele>245.273438</ele>
        <time>2011-04-26T14:53:36Z</time>
      </trkpt>
      <trkpt lat="46.97172" lon="5.66915">
        <ele>242.389648</ele>
        <time>2011-04-26T14:53:46Z</time>
      </trkpt>
      <trkpt lat="46.97097" lon="5.66925">
        <ele>238.544312</ele>
        <time>2011-04-26T14:53:53Z</time>
      </trkpt>
      <trkpt lat="46.97036" lon="5.66928">
        <ele>235.660278</ele>
        <time>2011-04-26T14:53:59Z</time>
      </trkpt>
      <trkpt lat="46.97013" lon="5.66929">
        <ele>234.218384</ele>
        <time>2011-04-26T14:54:01Z</time>
      </trkpt>
      <trkpt lat="46.96944" lon="5.66924">
        <ele>234.699097</ele>
        <time>2011-04-26T14:54:09Z</time>
      </trkpt>
      <trkpt lat="46.96892" lon="5.66916">
        <ele>237.582886</ele>
        <time>2011-04-26T14:54:17Z</time>
      </trkpt>
      <trkpt lat="46.96843" lon="5.66914">
        <ele>240.947632</ele>
        <time>2011-04-26T14:54:26Z</time>
      </trkpt>
      <trkpt lat="46.96802" lon="5.66928">
        <ele>243.35083</ele>
        <time>2011-04-26T14:54:35Z</time>
      </trkpt>
      <trkpt lat="46.96766" lon="5.66944">
        <ele>245.75415</ele>
        <time>2011-04-26T14:54:45Z</time>
      </trkpt>
      <trkpt lat="46.96735" lon="5.66964">
        <ele>247.196045</ele>
        <time>2011-04-26T14:54:55Z</time>
      </trkpt>
      <trkpt lat="46.96689" lon="5.66984">
        <ele>247.196045</ele>
        <time>2011-04-26T14:55:05Z</time>
      </trkpt>
      <trkpt lat="46.96684" lon="5.66986">
        <ele>247.196045</ele>
        <time>2011-04-26T14:55:06Z</time>
      </trkpt>
      <trkpt lat="46.96591" lon="5.66991">
        <ele>244.792847</ele>
        <time>2011-04-26T14:55:19Z</time>
      </trkpt>
      <trkpt lat="46.96583" lon="5.6699">
        <ele>244.312256</ele>
        <time>2011-04-26T14:55:20Z</time>
      </trkpt>
      <trkpt lat="46.96574" lon="5.6699">
        <ele>244.312256</ele>
        <time>2011-04-26T14:55:21Z</time>
      </trkpt>
      <trkpt lat="46.96483" lon="5.66979">
        <ele>240.467041</ele>
        <time>2011-04-26T14:55:32Z</time>
      </trkpt>
      <trkpt lat="46.96465" lon="5.66976">
        <ele>239.505493</ele>
        <time>2011-04-26T14:55:34Z</time>
      </trkpt>
      <trkpt lat="46.96431" lon="5.66972">
        <ele>239.024902</ele>
        <time>2011-04-26T14:55:38Z</time>
      </trkpt>
      <trkpt lat="46.9632" lon="5.6696">
        <ele>236.621704</ele>
        <time>2011-04-26T14:55:50Z</time>
      </trkpt>
      <trkpt lat="46.96249" lon="5.66951">
        <ele>234.699097</ele>
        <time>2011-04-26T14:55:58Z</time>
      </trkpt>
      <trkpt lat="46.96142" lon="5.66938">
        <ele>234.218384</ele>
        <time>2011-04-26T14:56:11Z</time>
      </trkpt>
      <trkpt lat="46.96067" lon="5.66927">
        <ele>235.660278</ele>
        <time>2011-04-26T14:56:21Z</time>
      </trkpt>
      <trkpt lat="46.96012" lon="5.6692">
        <ele>236.140991</ele>
        <time>2011-04-26T14:56:29Z</time>
      </trkpt>
      <trkpt lat="46.95926" lon="5.66919">
        <ele>237.102295</ele>
        <time>2011-04-26T14:56:40Z</time>
      </trkpt>
      <trkpt lat="46.95823" lon="5.66956">
        <ele>235.179688</ele>
        <time>2011-04-26T14:56:54Z</time>
      </trkpt>
      <trkpt lat="46.95713" lon="5.67">
        <ele>234.699097</ele>
        <time>2011-04-26T14:57:08Z</time>
      </trkpt>
      <trkpt lat="46.95688" lon="5.67">
        <ele>234.699097</ele>
        <time>2011-04-26T14:57:11Z</time>
      </trkpt>
      <trkpt lat="46.95657" lon="5.66987">
        <ele>235.179688</ele>
        <time>2011-04-26T14:57:15Z</time>
      </trkpt>
      <trkpt lat="46.9559" lon="5.66933">
        <ele>233.25708</ele>
        <time>2011-04-26T14:57:24Z</time>
      </trkpt>
      <trkpt lat="46.95538" lon="5.66872">
        <ele>230.85376</ele>
        <time>2011-04-26T14:57:31Z</time>
      </trkpt>
      <trkpt lat="46.95467" lon="5.66783">
        <ele>227.969727</ele>
        <time>2011-04-26T14:57:41Z</time>
      </trkpt>
      <trkpt lat="46.95406" lon="5.66667">
        <ele>227.008545</ele>
        <time>2011-04-26T14:57:53Z</time>
      </trkpt>
      <trkpt lat="46.95332" lon="5.66551">
        <ele>227.008545</ele>
        <time>2011-04-26T14:58:06Z</time>
      </trkpt>
      <trkpt lat="46.95175" lon="5.66386">
        <ele>227.008545</ele>
        <time>2011-04-26T14:58:30Z</time>
      </trkpt>
      <trkpt lat="46.95009" lon="5.66295">
        <ele>227.008545</ele>
        <time>2011-04-26T14:58:52Z</time>
      </trkpt>
      <trkpt lat="46.94841" lon="5.66204">
        <ele>227.489136</ele>
        <time>2011-04-26T14:59:15Z</time>
      </trkpt>
      <trkpt lat="46.94676" lon="5.66114">
        <ele>227.489136</ele>
        <time>2011-04-26T14:59:37Z</time>
      </trkpt>
      <trkpt lat="46.94557" lon="5.66022">
        <ele>227.969727</ele>
        <time>2011-04-26T14:59:54Z</time>
      </trkpt>
      <trkpt lat="46.94489" lon="5.65882">
        <ele>227.008545</ele>
        <time>2011-04-26T15:00:11Z</time>
      </trkpt>
      <trkpt lat="46.94473" lon="5.65852">
        <ele>227.489136</ele>
        <time>2011-04-26T15:00:15Z</time>
      </trkpt>
      <trkpt lat="46.94386" lon="5.65749">
        <ele>227.969727</ele>
        <time>2011-04-26T15:00:34Z</time>
      </trkpt>
      <trkpt lat="46.94349" lon="5.65734">
        <ele>229.411743</ele>
        <time>2011-04-26T15:00:46Z</time>
      </trkpt>
      <trkpt lat="46.94342" lon="5.65736">
        <ele>228.931152</ele>
        <time>2011-04-26T15:00:51Z</time>
      </trkpt>
      <trkpt lat="46.9431" lon="5.65793">
        <ele>228.931152</ele>
        <time>2011-04-26T15:01:09Z</time>
      </trkpt>
      <trkpt lat="46.94241" lon="5.6591">
        <ele>229.892334</ele>
        <time>2011-04-26T15:01:31Z</time>
      </trkpt>
      <trkpt lat="46.94173" lon="5.66009">
        <ele>229.892334</ele>
        <time>2011-04-26T15:01:49Z</time>
      </trkpt>
      <trkpt lat="46.94153" lon="5.66005">
        <ele>229.411743</ele>
        <time>2011-04-26T15:01:54Z</time>
      </trkpt>
      <trkpt lat="46.94129" lon="5.65995">
        <ele>230.373047</ele>
        <time>2011-04-26T15:02:00Z</time>
      </trkpt>
      <trkpt lat="46.94116" lon="5.65987">
        <ele>229.892334</ele>
        <time>2011-04-26T15:02:03Z</time>
      </trkpt>
      <trkpt lat="46.941" lon="5.6597">
        <ele>229.892334</ele>
        <time>2011-04-26T15:02:07Z</time>
      </trkpt>
      <trkpt lat="46.94007" lon="5.65819">
        <ele>232.295776</ele>
        <time>2011-04-26T15:02:33Z</time>
      </trkpt>
      <trkpt lat="46.93982" lon="5.65748">
        <ele>233.737671</ele>
        <time>2011-04-26T15:02:43Z</time>
      </trkpt>
      <trkpt lat="46.93976" lon="5.65725">
        <ele>233.737671</ele>
        <time>2011-04-26T15:02:46Z</time>
      </trkpt>
      <trkpt lat="46.93968" lon="5.65704">
        <ele>234.699097</ele>
        <time>2011-04-26T15:02:49Z</time>
      </trkpt>
      <trkpt lat="46.93939" lon="5.65682">
        <ele>236.140991</ele>
        <time>2011-04-26T15:02:56Z</time>
      </trkpt>
      <trkpt lat="46.9393" lon="5.65683">
        <ele>237.102295</ele>
        <time>2011-04-26T15:02:58Z</time>
      </trkpt>
      <trkpt lat="46.93911" lon="5.65681">
        <ele>238.544312</ele>
        <time>2011-04-26T15:03:02Z</time>
      </trkpt>
      <trkpt lat="46.93882" lon="5.6567">
        <ele>239.986206</ele>
        <time>2011-04-26T15:03:09Z</time>
      </trkpt>
      <trkpt lat="46.93865" lon="5.6566">
        <ele>240.947632</ele>
        <time>2011-04-26T15:03:13Z</time>
      </trkpt>
      <trkpt lat="46.93855" lon="5.65646">
        <ele>242.389648</ele>
        <time>2011-04-26T15:03:16Z</time>
      </trkpt>
      <trkpt lat="46.93804" lon="5.65602">
        <ele>245.273438</ele>
        <time>2011-04-26T15:03:30Z</time>
      </trkpt>
      <trkpt lat="46.93693" lon="5.65559">
        <ele>244.792847</ele>
        <time>2011-04-26T15:03:52Z</time>
      </trkpt>
      <trkpt lat="46.93566" lon="5.655">
        <ele>245.75415</ele>
        <time>2011-04-26T15:04:16Z</time>
      </trkpt>
      <trkpt lat="46.93405" lon="5.65415">
        <ele>248.638184</ele>
        <time>2011-04-26T15:04:45Z</time>
      </trkpt>
      <trkpt lat="46.933" lon="5.65331">
        <ele>252.002808</ele>
        <time>2011-04-26T15:05:05Z</time>
      </trkpt>
      <trkpt lat="46.93173" lon="5.65245">
        <ele>254.886597</ele>
        <time>2011-04-26T15:05:28Z</time>
      </trkpt>
      <trkpt lat="46.93058" lon="5.65148">
        <ele>257.770752</ele>
        <time>2011-04-26T15:05:50Z</time>
      </trkpt>
      <trkpt lat="46.92915" lon="5.65053">
        <ele>259.693359</ele>
        <time>2011-04-26T15:06:15Z</time>
      </trkpt>
      <trkpt lat="46.92781" lon="5.64985">
        <ele>262.577148</ele>
        <time>2011-04-26T15:06:37Z</time>
      </trkpt>
      <trkpt lat="46.92701" lon="5.64952">
        <ele>264.980591</ele>
        <time>2011-04-26T15:06:51Z</time>
      </trkpt>
      <trkpt lat="46.92652" lon="5.64931">
        <ele>264.499878</ele>
        <time>2011-04-26T15:06:59Z</time>
      </trkpt>
      <trkpt lat="46.92562" lon="5.64897">
        <ele>261.135254</ele>
        <time>2011-04-26T15:07:11Z</time>
      </trkpt>
      <trkpt lat="46.92481" lon="5.64866">
        <ele>259.693359</ele>
        <time>2011-04-26T15:07:21Z</time>
      </trkpt>
      <trkpt lat="46.92413" lon="5.64836">
        <ele>263.057861</ele>
        <time>2011-04-26T15:07:33Z</time>
      </trkpt>
      <trkpt lat="46.92338" lon="5.64777">
        <ele>264.499878</ele>
        <time>2011-04-26T15:07:47Z</time>
      </trkpt>
      <trkpt lat="46.92294" lon="5.6474">
        <ele>265.941895</ele>
        <time>2011-04-26T15:07:55Z</time>
      </trkpt>
      <trkpt lat="46.92279" lon="5.64726">
        <ele>266.422485</ele>
        <time>2011-04-26T15:07:58Z</time>
      </trkpt>
      <trkpt lat="46.92262" lon="5.64713">
        <ele>266.903198</ele>
        <time>2011-04-26T15:08:01Z</time>
      </trkpt>
      <trkpt lat="46.92235" lon="5.64692">
        <ele>266.903198</ele>
        <time>2011-04-26T15:08:06Z</time>
      </trkpt>
      <trkpt lat="46.92219" lon="5.64678">
        <ele>266.903198</ele>
        <time>2011-04-26T15:08:09Z</time>
      </trkpt>
      <trkpt lat="46.92209" lon="5.64669">
        <ele>267.383911</ele>
        <time>2011-04-26T15:08:11Z</time>
      </trkpt>
      <trkpt lat="46.92123" lon="5.64582">
        <ele>267.864502</ele>
        <time>2011-04-26T15:08:28Z</time>
      </trkpt>
      <trkpt lat="46.92009" lon="5.64443">
        <ele>266.903198</ele>
        <time>2011-04-26T15:08:51Z</time>
      </trkpt>
      <trkpt lat="46.91876" lon="5.64292">
        <ele>264.499878</ele>
        <time>2011-04-26T15:09:14Z</time>
      </trkpt>
      <trkpt lat="46.91793" lon="5.64206">
        <ele>261.135254</ele>
        <time>2011-04-26T15:09:26Z</time>
      </trkpt>
      <trkpt lat="46.91695" lon="5.64101">
        <ele>257.770752</ele>
        <time>2011-04-26T15:09:39Z</time>
      </trkpt>
      <trkpt lat="46.9168" lon="5.64085">
        <ele>256.809326</ele>
        <time>2011-04-26T15:09:41Z</time>
      </trkpt>
      <trkpt lat="46.91563" lon="5.63965">
        <ele>257.290039</ele>
        <time>2011-04-26T15:09:58Z</time>
      </trkpt>
      <trkpt lat="46.91472" lon="5.63937">
        <ele>255.36731</ele>
        <time>2011-04-26T15:10:09Z</time>
      </trkpt>
      <trkpt lat="46.91384" lon="5.63885">
        <ele>254.406006</ele>
        <time>2011-04-26T15:10:21Z</time>
      </trkpt>
      <trkpt lat="46.91317" lon="5.63851">
        <ele>252.002808</ele>
        <time>2011-04-26T15:10:30Z</time>
      </trkpt>
      <trkpt lat="46.91268" lon="5.63822">
        <ele>249.118774</ele>
        <time>2011-04-26T15:10:38Z</time>
      </trkpt>
      <trkpt lat="46.91194" lon="5.63779">
        <ele>246.715454</ele>
        <time>2011-04-26T15:10:51Z</time>
      </trkpt>
      <trkpt lat="46.91174" lon="5.63772">
        <ele>245.273438</ele>
        <time>2011-04-26T15:10:55Z</time>
      </trkpt>
      <trkpt lat="46.91161" lon="5.63767">
        <ele>243.831543</ele>
        <time>2011-04-26T15:11:05Z</time>
      </trkpt>
      <trkpt lat="46.91147" lon="5.63748">
        <ele>243.831543</ele>
        <time>2011-04-26T15:11:57Z</time>
      </trkpt>
      <trkpt lat="46.91091" lon="5.6364">
        <ele>240.947632</ele>
        <time>2011-04-26T15:12:18Z</time>
      </trkpt>
      <trkpt lat="46.91057" lon="5.63575">
        <ele>239.505493</ele>
        <time>2011-04-26T15:12:28Z</time>
      </trkpt>
      <trkpt lat="46.91051" lon="5.63531">
        <ele>238.544312</ele>
        <time>2011-04-26T15:12:33Z</time>
      </trkpt>
      <trkpt lat="46.91059" lon="5.63486">
        <ele>238.063599</ele>
        <time>2011-04-26T15:12:38Z</time>
      </trkpt>
      <trkpt lat="46.91056" lon="5.63348">
        <ele>236.140991</ele>
        <time>2011-04-26T15:12:52Z</time>
      </trkpt>
      <trkpt lat="46.91053" lon="5.63303">
        <ele>235.179688</ele>
        <time>2011-04-26T15:12:58Z</time>
      </trkpt>
      <trkpt lat="46.91051" lon="5.63291">
        <ele>235.179688</ele>
        <time>2011-04-26T15:13:00Z</time>
      </trkpt>
      <trkpt lat="46.91048" lon="5.6328">
        <ele>234.699097</ele>
        <time>2011-04-26T15:13:02Z</time>
      </trkpt>
      <trkpt lat="46.91033" lon="5.63251">
        <ele>234.699097</ele>
        <time>2011-04-26T15:13:13Z</time>
      </trkpt>
      <trkpt lat="46.91018" lon="5.63228">
        <ele>234.699097</ele>
        <time>2011-04-26T15:13:23Z</time>
      </trkpt>
      <trkpt lat="46.90966" lon="5.63136">
        <ele>235.660278</ele>
        <time>2011-04-26T15:13:43Z</time>
      </trkpt>
      <trkpt lat="46.90926" lon="5.63064">
        <ele>237.102295</ele>
        <time>2011-04-26T15:13:57Z</time>
      </trkpt>
      <trkpt lat="46.90878" lon="5.62953">
        <ele>238.063599</ele>
        <time>2011-04-26T15:14:15Z</time>
      </trkpt>
      <trkpt lat="46.90853" lon="5.62823">
        <ele>236.140991</ele>
        <time>2011-04-26T15:14:29Z</time>
      </trkpt>
      <trkpt lat="46.90812" lon="5.62609">
        <ele>238.544312</ele>
        <time>2011-04-26T15:14:52Z</time>
      </trkpt>
      <trkpt lat="46.90774" lon="5.62409">
        <ele>241.428223</ele>
        <time>2011-04-26T15:15:16Z</time>
      </trkpt>
      <trkpt lat="46.90738" lon="5.62219">
        <ele>243.831543</ele>
        <time>2011-04-26T15:15:39Z</time>
      </trkpt>
      <trkpt lat="46.90706" lon="5.62066">
        <ele>245.75415</ele>
        <time>2011-04-26T15:15:57Z</time>
      </trkpt>
      <trkpt lat="46.90654" lon="5.61934">
        <ele>243.35083</ele>
        <time>2011-04-26T15:16:12Z</time>
      </trkpt>
      <trkpt lat="46.90639" lon="5.61895">
        <ele>242.870239</ele>
        <time>2011-04-26T15:16:16Z</time>
      </trkpt>
      <trkpt lat="46.90606" lon="5.61763">
        <ele>239.505493</ele>
        <time>2011-04-26T15:16:27Z</time>
      </trkpt>
      <trkpt lat="46.90588" lon="5.61658">
        <ele>235.660278</ele>
        <time>2011-04-26T15:16:34Z</time>
      </trkpt>
      <trkpt lat="46.90555" lon="5.61479">
        <ele>234.699097</ele>
        <time>2011-04-26T15:16:48Z</time>
      </trkpt>
      <trkpt lat="46.90506" lon="5.61331">
        <ele>236.621704</ele>
        <time>2011-04-26T15:17:04Z</time>
      </trkpt>
      <trkpt lat="46.90466" lon="5.61263">
        <ele>238.544312</ele>
        <time>2011-04-26T15:17:13Z</time>
      </trkpt>
      <trkpt lat="46.90381" lon="5.61139">
        <ele>238.544312</ele>
        <time>2011-04-26T15:17:29Z</time>
      </trkpt>
      <trkpt lat="46.9024" lon="5.60992">
        <ele>240.947632</ele>
        <time>2011-04-26T15:17:51Z</time>
      </trkpt>
      <trkpt lat="46.90174" lon="5.60891">
        <ele>239.024902</ele>
        <time>2011-04-26T15:18:03Z</time>
      </trkpt>
      <trkpt lat="46.90147" lon="5.60766">
        <ele>236.621704</ele>
        <time>2011-04-26T15:18:13Z</time>
      </trkpt>
      <trkpt lat="46.90124" lon="5.60633">
        <ele>233.25708</ele>
        <time>2011-04-26T15:18:22Z</time>
      </trkpt>
      <trkpt lat="46.90119" lon="5.60603">
        <ele>232.776489</ele>
        <time>2011-04-26T15:18:24Z</time>
      </trkpt>
      <trkpt lat="46.9009" lon="5.60439">
        <ele>229.411743</ele>
        <time>2011-04-26T15:18:35Z</time>
      </trkpt>
      <trkpt lat="46.90063" lon="5.60275">
        <ele>225.566528</ele>
        <time>2011-04-26T15:18:46Z</time>
      </trkpt>
      <trkpt lat="46.9006" lon="5.60261">
        <ele>225.566528</ele>
        <time>2011-04-26T15:18:47Z</time>
      </trkpt>
      <trkpt lat="46.90025" lon="5.60046">
        <ele>225.085938</ele>
        <time>2011-04-26T15:19:04Z</time>
      </trkpt>
      <trkpt lat="46.89974" lon="5.59757">
        <ele>223.163208</ele>
        <time>2011-04-26T15:19:30Z</time>
      </trkpt>
      <trkpt lat="46.89934" lon="5.59487">
        <ele>223.163208</ele>
        <time>2011-04-26T15:19:52Z</time>
      </trkpt>
      <trkpt lat="46.89929" lon="5.59225">
        <ele>223.163208</ele>
        <time>2011-04-26T15:20:14Z</time>
      </trkpt>
      <trkpt lat="46.89922" lon="5.58914">
        <ele>221.721191</ele>
        <time>2011-04-26T15:20:40Z</time>
      </trkpt>
      <trkpt lat="46.89898" lon="5.58698">
        <ele>220.759888</ele>
        <time>2011-04-26T15:21:00Z</time>
      </trkpt>
      <trkpt lat="46.89821" lon="5.58474">
        <ele>224.124512</ele>
        <time>2011-04-26T15:21:23Z</time>
      </trkpt>
      <trkpt lat="46.89794" lon="5.58394">
        <ele>227.008545</ele>
        <time>2011-04-26T15:21:33Z</time>
      </trkpt>
      <trkpt lat="46.89756" lon="5.58281">
        <ele>226.527832</ele>
        <time>2011-04-26T15:21:50Z</time>
      </trkpt>
      <trkpt lat="46.89722" lon="5.58181">
        <ele>223.643799</ele>
        <time>2011-04-26T15:22:01Z</time>
      </trkpt>
      <trkpt lat="46.89685" lon="5.58071">
        <ele>220.759888</ele>
        <time>2011-04-26T15:22:11Z</time>
      </trkpt>
      <trkpt lat="46.89626" lon="5.57885">
        <ele>220.279175</ele>
        <time>2011-04-26T15:22:30Z</time>
      </trkpt>
      <trkpt lat="46.89553" lon="5.5764">
        <ele>220.759888</ele>
        <time>2011-04-26T15:22:55Z</time>
      </trkpt>
      <trkpt lat="46.89516" lon="5.57457">
        <ele>220.759888</ele>
        <time>2011-04-26T15:23:12Z</time>
      </trkpt>
      <trkpt lat="46.8948" lon="5.57247">
        <ele>219.798584</ele>
        <time>2011-04-26T15:23:33Z</time>
      </trkpt>
      <trkpt lat="46.89441" lon="5.57025">
        <ele>221.240601</ele>
        <time>2011-04-26T15:23:56Z</time>
      </trkpt>
      <trkpt lat="46.8939" lon="5.56738">
        <ele>222.201782</ele>
        <time>2011-04-26T15:24:25Z</time>
      </trkpt>
      <trkpt lat="46.89384" lon="5.56698">
        <ele>222.682495</ele>
        <time>2011-04-26T15:24:29Z</time>
      </trkpt>
      <trkpt lat="46.89387" lon="5.56657">
        <ele>222.201782</ele>
        <time>2011-04-26T15:24:33Z</time>
      </trkpt>
      <trkpt lat="46.89398" lon="5.56619">
        <ele>222.682495</ele>
        <time>2011-04-26T15:24:37Z</time>
      </trkpt>
      <trkpt lat="46.89474" lon="5.56486">
        <ele>223.643799</ele>
        <time>2011-04-26T15:24:55Z</time>
      </trkpt>
      <trkpt lat="46.89547" lon="5.56357">
        <ele>226.527832</ele>
        <time>2011-04-26T15:25:15Z</time>
      </trkpt>
      <trkpt lat="46.89602" lon="5.56253">
        <ele>229.892334</ele>
        <time>2011-04-26T15:25:33Z</time>
      </trkpt>
      <trkpt lat="46.8969" lon="5.5608">
        <ele>230.373047</ele>
        <time>2011-04-26T15:26:00Z</time>
      </trkpt>
      <trkpt lat="46.89743" lon="5.55973">
        <ele>227.008545</ele>
        <time>2011-04-26T15:26:12Z</time>
      </trkpt>
      <trkpt lat="46.89798" lon="5.55859">
        <ele>223.643799</ele>
        <time>2011-04-26T15:26:23Z</time>
      </trkpt>
      <trkpt lat="46.89884" lon="5.55684">
        <ele>224.124512</ele>
        <time>2011-04-26T15:26:42Z</time>
      </trkpt>
      <trkpt lat="46.89888" lon="5.55675">
        <ele>223.643799</ele>
        <time>2011-04-26T15:26:43Z</time>
      </trkpt>
      <trkpt lat="46.89942" lon="5.55579">
        <ele>223.643799</ele>
        <time>2011-04-26T15:26:57Z</time>
      </trkpt>
      <trkpt lat="46.90023" lon="5.55479">
        <ele>224.124512</ele>
        <time>2011-04-26T15:27:15Z</time>
      </trkpt>
      <trkpt lat="46.90102" lon="5.55431">
        <ele>224.605225</ele>
        <time>2011-04-26T15:27:29Z</time>
      </trkpt>
      <trkpt lat="46.90192" lon="5.55401">
        <ele>225.566528</ele>
        <time>2011-04-26T15:27:46Z</time>
      </trkpt>
      <trkpt lat="46.90278" lon="5.55371">
        <ele>226.527832</ele>
        <time>2011-04-26T15:28:01Z</time>
      </trkpt>
      <trkpt lat="46.90354" lon="5.55327">
        <ele>227.489136</ele>
        <time>2011-04-26T15:28:16Z</time>
      </trkpt>
      <trkpt lat="46.90437" lon="5.55278">
        <ele>224.124512</ele>
        <time>2011-04-26T15:28:30Z</time>
      </trkpt>
      <trkpt lat="46.90518" lon="5.55187">
        <ele>221.721191</ele>
        <time>2011-04-26T15:28:44Z</time>
      </trkpt>
      <trkpt lat="46.90523" lon="5.5518">
        <ele>221.721191</ele>
        <time>2011-04-26T15:28:45Z</time>
      </trkpt>
      <trkpt lat="46.90625" lon="5.55033">
        <ele>222.682495</ele>
        <time>2011-04-26T15:29:07Z</time>
      </trkpt>
      <trkpt lat="46.90665" lon="5.5496">
        <ele>225.566528</ele>
        <time>2011-04-26T15:29:18Z</time>
      </trkpt>
      <trkpt lat="46.90675" lon="5.54938">
        <ele>226.527832</ele>
        <time>2011-04-26T15:29:22Z</time>
      </trkpt>
      <trkpt lat="46.90726" lon="5.54838">
        <ele>227.489136</ele>
        <time>2011-04-26T15:29:38Z</time>
      </trkpt>
      <trkpt lat="46.90786" lon="5.5472">
        <ele>228.450439</ele>
        <time>2011-04-26T15:29:54Z</time>
      </trkpt>
      <trkpt lat="46.90816" lon="5.54666">
        <ele>231.814941</ele>
        <time>2011-04-26T15:30:05Z</time>
      </trkpt>
      <trkpt lat="46.90831" lon="5.54641">
        <ele>233.25708</ele>
        <time>2011-04-26T15:30:10Z</time>
      </trkpt>
      <trkpt lat="46.90861" lon="5.54581">
        <ele>236.621704</ele>
        <time>2011-04-26T15:30:24Z</time>
      </trkpt>
      <trkpt lat="46.90897" lon="5.54521">
        <ele>237.102295</ele>
        <time>2011-04-26T15:30:36Z</time>
      </trkpt>
      <trkpt lat="46.90963" lon="5.54424">
        <ele>235.179688</ele>
        <time>2011-04-26T15:30:50Z</time>
      </trkpt>
      <trkpt lat="46.91049" lon="5.54351">
        <ele>238.544312</ele>
        <time>2011-04-26T15:31:07Z</time>
      </trkpt>
      <trkpt lat="46.91127" lon="5.54287">
        <ele>240.467041</ele>
        <time>2011-04-26T15:31:24Z</time>
      </trkpt>
      <trkpt lat="46.91225" lon="5.54205">
        <ele>238.063599</ele>
        <time>2011-04-26T15:31:41Z</time>
      </trkpt>
      <trkpt lat="46.91394" lon="5.54057">
        <ele>236.621704</ele>
        <time>2011-04-26T15:32:09Z</time>
      </trkpt>
      <trkpt lat="46.9148" lon="5.53915">
        <ele>237.102295</ele>
        <time>2011-04-26T15:32:29Z</time>
      </trkpt>
      <trkpt lat="46.91542" lon="5.53808">
        <ele>234.699097</ele>
        <time>2011-04-26T15:32:43Z</time>
      </trkpt>
      <trkpt lat="46.91562" lon="5.53775">
        <ele>233.25708</ele>
        <time>2011-04-26T15:32:47Z</time>
      </trkpt>
      <trkpt lat="46.91621" lon="5.53675">
        <ele>228.931152</ele>
        <time>2011-04-26T15:32:58Z</time>
      </trkpt>
      <trkpt lat="46.91633" lon="5.53657">
        <ele>227.969727</ele>
        <time>2011-04-26T15:33:00Z</time>
      </trkpt>
      <trkpt lat="46.91701" lon="5.53542">
        <ele>224.124512</ele>
        <time>2011-04-26T15:33:13Z</time>
      </trkpt>
      <trkpt lat="46.91826" lon="5.53333">
        <ele>222.201782</ele>
        <time>2011-04-26T15:33:34Z</time>
      </trkpt>
      <trkpt lat="46.91912" lon="5.53187">
        <ele>222.682495</ele>
        <time>2011-04-26T15:33:51Z</time>
      </trkpt>
      <trkpt lat="46.91995" lon="5.5305">
        <ele>222.201782</ele>
        <time>2011-04-26T15:34:06Z</time>
      </trkpt>
      <trkpt lat="46.92092" lon="5.52864">
        <ele>221.721191</ele>
        <time>2011-04-26T15:34:26Z</time>
      </trkpt>
      <trkpt lat="46.92117" lon="5.52695">
        <ele>221.721191</ele>
        <time>2011-04-26T15:34:41Z</time>
      </trkpt>
      <trkpt lat="46.92129" lon="5.52486">
        <ele>221.721191</ele>
        <time>2011-04-26T15:34:59Z</time>
      </trkpt>
      <trkpt lat="46.92139" lon="5.52286">
        <ele>224.605225</ele>
        <time>2011-04-26T15:35:17Z</time>
      </trkpt>
      <trkpt lat="46.92153" lon="5.52066">
        <ele>226.527832</ele>
        <time>2011-04-26T15:35:38Z</time>
      </trkpt>
      <trkpt lat="46.92165" lon="5.51845">
        <ele>230.373047</ele>
        <time>2011-04-26T15:36:02Z</time>
      </trkpt>
      <trkpt lat="46.92165" lon="5.51838">
        <ele>230.373047</ele>
        <time>2011-04-26T15:36:03Z</time>
      </trkpt>
      <trkpt lat="46.92172" lon="5.5171">
        <ele>233.737671</ele>
        <time>2011-04-26T15:36:21Z</time>
      </trkpt>
      <trkpt lat="46.92175" lon="5.51642">
        <ele>235.179688</ele>
        <time>2011-04-26T15:36:35Z</time>
      </trkpt>
      <trkpt lat="46.92176" lon="5.51634">
        <ele>235.660278</ele>
        <time>2011-04-26T15:36:49Z</time>
      </trkpt>
      <trkpt lat="46.92183" lon="5.51575">
        <ele>235.660278</ele>
        <time>2011-04-26T15:37:01Z</time>
      </trkpt>
      <trkpt lat="46.92158" lon="5.51497">
        <ele>235.660278</ele>
        <time>2011-04-26T15:37:16Z</time>
      </trkpt>
      <trkpt lat="46.9215" lon="5.51468">
        <ele>235.179688</ele>
        <time>2011-04-26T15:37:22Z</time>
      </trkpt>
      <trkpt lat="46.92152" lon="5.5146">
        <ele>235.179688</ele>
        <time>2011-04-26T15:37:36Z</time>
      </trkpt>
      <trkpt lat="46.92152" lon="5.51461">
        <ele>235.660278</ele>
        <time>2011-04-26T15:39:00Z</time>
      </trkpt>
      <trkpt lat="46.92151" lon="5.5146">
        <ele>235.660278</ele>
        <time>2011-04-26T15:41:09Z</time>
      </trkpt>
      <trkpt lat="46.92151" lon="5.5146">
        <ele>235.660278</ele>
        <time>2011-04-26T15:42:25Z</time>
      </trkpt>
      <trkpt lat="46.92149" lon="5.51462">
        <ele>235.660278</ele>
        <time>2011-04-26T15:44:35Z</time>
      </trkpt>
      <trkpt lat="46.92143" lon="5.51455">
        <ele>236.140991</ele>
        <time>2011-04-26T15:44:41Z</time>
      </trkpt>
      <trkpt lat="46.92141" lon="5.51451">
        <ele>236.140991</ele>
        <time>2011-04-26T15:44:43Z</time>
      </trkpt>
      <trkpt lat="46.9214" lon="5.51443">
        <ele>236.140991</ele>
        <time>2011-04-26T15:44:47Z</time>
      </trkpt>
      <trkpt lat="46.92124" lon="5.51394">
        <ele>235.660278</ele>
        <time>2011-04-26T15:45:02Z</time>
      </trkpt>
      <trkpt lat="46.92113" lon="5.51291">
        <ele>232.776489</ele>
        <time>2011-04-26T15:45:15Z</time>
      </trkpt>
      <trkpt lat="46.9213" lon="5.51166">
        <ele>229.892334</ele>
        <time>2011-04-26T15:45:27Z</time>
      </trkpt>
      <trkpt lat="46.92161" lon="5.51041">
        <ele>226.527832</ele>
        <time>2011-04-26T15:45:38Z</time>
      </trkpt>
      <trkpt lat="46.92177" lon="5.50907">
        <ele>223.643799</ele>
        <time>2011-04-26T15:45:49Z</time>
      </trkpt>
      <trkpt lat="46.9218" lon="5.50786">
        <ele>220.279175</ele>
        <time>2011-04-26T15:45:58Z</time>
      </trkpt>
      <trkpt lat="46.9218" lon="5.50772">
        <ele>219.798584</ele>
        <time>2011-04-26T15:45:59Z</time>
      </trkpt>
      <trkpt lat="46.92184" lon="5.5052">
        <ele>216.914673</ele>
        <time>2011-04-26T15:46:19Z</time>
      </trkpt>
      <trkpt lat="46.92187" lon="5.50299">
        <ele>215.953247</ele>
        <time>2011-04-26T15:46:40Z</time>
      </trkpt>
      <trkpt lat="46.92189" lon="5.50162">
        <ele>215.953247</ele>
        <time>2011-04-26T15:46:53Z</time>
      </trkpt>
      <trkpt lat="46.92192" lon="5.5001">
        <ele>215.953247</ele>
        <time>2011-04-26T15:47:08Z</time>
      </trkpt>
      <trkpt lat="46.92193" lon="5.49981">
        <ele>215.953247</ele>
        <time>2011-04-26T15:47:11Z</time>
      </trkpt>
      <trkpt lat="46.92195" lon="5.49797">
        <ele>213.069336</ele>
        <time>2011-04-26T15:47:27Z</time>
      </trkpt>
      <trkpt lat="46.922" lon="5.49608">
        <ele>212.108032</ele>
        <time>2011-04-26T15:47:44Z</time>
      </trkpt>
      <trkpt lat="46.92206" lon="5.49409">
        <ele>214.51123</ele>
        <time>2011-04-26T15:48:06Z</time>
      </trkpt>
      <trkpt lat="46.92196" lon="5.49221">
        <ele>214.51123</ele>
        <time>2011-04-26T15:48:27Z</time>
      </trkpt>
      <trkpt lat="46.92178" lon="5.49078">
        <ele>211.146729</ele>
        <time>2011-04-26T15:48:40Z</time>
      </trkpt>
      <trkpt lat="46.9217" lon="5.48857">
        <ele>210.185425</ele>
        <time>2011-04-26T15:49:00Z</time>
      </trkpt>
      <trkpt lat="46.92171" lon="5.48685">
        <ele>208.262817</ele>
        <time>2011-04-26T15:49:16Z</time>
      </trkpt>
      <trkpt lat="46.92127" lon="5.48516">
        <ele>207.782104</ele>
        <time>2011-04-26T15:49:32Z</time>
      </trkpt>
      <trkpt lat="46.92091" lon="5.48387">
        <ele>210.666016</ele>
        <time>2011-04-26T15:49:48Z</time>
      </trkpt>
      <trkpt lat="46.92064" lon="5.4829">
        <ele>214.03064</ele>
        <time>2011-04-26T15:50:01Z</time>
      </trkpt>
      <trkpt lat="46.92007" lon="5.48084">
        <ele>212.588623</ele>
        <time>2011-04-26T15:50:25Z</time>
      </trkpt>
      <trkpt lat="46.91964" lon="5.47932">
        <ele>209.224121</ele>
        <time>2011-04-26T15:50:39Z</time>
      </trkpt>
      <trkpt lat="46.919" lon="5.477">
        <ele>211.146729</ele>
        <time>2011-04-26T15:51:02Z</time>
      </trkpt>
      <trkpt lat="46.91843" lon="5.47496">
        <ele>208.262817</ele>
        <time>2011-04-26T15:51:21Z</time>
      </trkpt>
      <trkpt lat="46.91771" lon="5.4723">
        <ele>209.224121</ele>
        <time>2011-04-26T15:51:46Z</time>
      </trkpt>
      <trkpt lat="46.91701" lon="5.46982">
        <ele>210.666016</ele>
        <time>2011-04-26T15:52:11Z</time>
      </trkpt>
      <trkpt lat="46.91693" lon="5.4695">
        <ele>209.224121</ele>
        <time>2011-04-26T15:52:14Z</time>
      </trkpt>
      <trkpt lat="46.91634" lon="5.46733">
        <ele>209.704834</ele>
        <time>2011-04-26T15:52:36Z</time>
      </trkpt>
      <trkpt lat="46.91585" lon="5.46522">
        <ele>207.301392</ele>
        <time>2011-04-26T15:52:56Z</time>
      </trkpt>
      <trkpt lat="46.91578" lon="5.4635">
        <ele>204.41748</ele>
        <time>2011-04-26T15:53:11Z</time>
      </trkpt>
      <trkpt lat="46.91571" lon="5.46249">
        <ele>201.052856</ele>
        <time>2011-04-26T15:53:19Z</time>
      </trkpt>
      <trkpt lat="46.91551" lon="5.46165">
        <ele>199.130127</ele>
        <time>2011-04-26T15:53:26Z</time>
      </trkpt>
      <trkpt lat="46.91502" lon="5.46008">
        <ele>201.052856</ele>
        <time>2011-04-26T15:53:42Z</time>
      </trkpt>
      <trkpt lat="46.9148" lon="5.45947">
        <ele>203.456177</ele>
        <time>2011-04-26T15:53:49Z</time>
      </trkpt>
      <trkpt lat="46.91475" lon="5.4588">
        <ele>206.820679</ele>
        <time>2011-04-26T15:53:57Z</time>
      </trkpt>
      <trkpt lat="46.91485" lon="5.4584">
        <ele>207.782104</ele>
        <time>2011-04-26T15:54:02Z</time>
      </trkpt>
      <trkpt lat="46.91493" lon="5.45807">
        <ele>209.704834</ele>
        <time>2011-04-26T15:54:06Z</time>
      </trkpt>
      <trkpt lat="46.91521" lon="5.45736">
        <ele>211.627441</ele>
        <time>2011-04-26T15:54:19Z</time>
      </trkpt>
      <trkpt lat="46.91524" lon="5.45732">
        <ele>211.627441</ele>
        <time>2011-04-26T15:54:20Z</time>
      </trkpt>
      <trkpt lat="46.91555" lon="5.45695">
        <ele>210.666016</ele>
        <time>2011-04-26T15:54:31Z</time>
      </trkpt>
      <trkpt lat="46.91565" lon="5.45684">
        <ele>210.666016</ele>
        <time>2011-04-26T15:54:34Z</time>
      </trkpt>
      <trkpt lat="46.91628" lon="5.45577">
        <ele>211.627441</ele>
        <time>2011-04-26T15:54:54Z</time>
      </trkpt>
      <trkpt lat="46.91683" lon="5.45464">
        <ele>212.108032</ele>
        <time>2011-04-26T15:55:11Z</time>
      </trkpt>
      <trkpt lat="46.9175" lon="5.45338">
        <ele>211.146729</ele>
        <time>2011-04-26T15:55:30Z</time>
      </trkpt>
      <trkpt lat="46.91755" lon="5.45333">
        <ele>212.108032</ele>
        <time>2011-04-26T15:55:31Z</time>
      </trkpt>
      <trkpt lat="46.91788" lon="5.45298">
        <ele>210.185425</ele>
        <time>2011-04-26T15:55:38Z</time>
      </trkpt>
      <trkpt lat="46.91798" lon="5.45288">
        <ele>209.704834</ele>
        <time>2011-04-26T15:55:40Z</time>
      </trkpt>
      <trkpt lat="46.91864" lon="5.45182">
        <ele>209.704834</ele>
        <time>2011-04-26T15:55:55Z</time>
      </trkpt>
      <trkpt lat="46.91955" lon="5.45113">
        <ele>211.627441</ele>
        <time>2011-04-26T15:56:12Z</time>
      </trkpt>
      <trkpt lat="46.92046" lon="5.45022">
        <ele>211.627441</ele>
        <time>2011-04-26T15:56:30Z</time>
      </trkpt>
      <trkpt lat="46.92162" lon="5.44939">
        <ele>213.550049</ele>
        <time>2011-04-26T15:56:51Z</time>
      </trkpt>
      <trkpt lat="46.92325" lon="5.44822">
        <ele>213.069336</ele>
        <time>2011-04-26T15:57:20Z</time>
      </trkpt>
      <trkpt lat="46.92427" lon="5.44665">
        <ele>213.069336</ele>
        <time>2011-04-26T15:57:43Z</time>
      </trkpt>
      <trkpt lat="46.92556" lon="5.44449">
        <ele>213.069336</ele>
        <time>2011-04-26T15:58:13Z</time>
      </trkpt>
      <trkpt lat="46.9263" lon="5.44255">
        <ele>212.588623</ele>
        <time>2011-04-26T15:58:35Z</time>
      </trkpt>
      <trkpt lat="46.92693" lon="5.44088">
        <ele>213.550049</ele>
        <time>2011-04-26T15:58:55Z</time>
      </trkpt>
      <trkpt lat="46.92717" lon="5.44064">
        <ele>212.108032</ele>
        <time>2011-04-26T15:59:00Z</time>
      </trkpt>
      <trkpt lat="46.92848" lon="5.44062">
        <ele>213.069336</ele>
        <time>2011-04-26T15:59:21Z</time>
      </trkpt>
      <trkpt lat="46.9295" lon="5.44074">
        <ele>213.069336</ele>
        <time>2011-04-26T15:59:38Z</time>
      </trkpt>
      <trkpt lat="46.93041" lon="5.44032">
        <ele>213.069336</ele>
        <time>2011-04-26T15:59:53Z</time>
      </trkpt>
      <trkpt lat="46.93177" lon="5.43977">
        <ele>213.069336</ele>
        <time>2011-04-26T16:00:16Z</time>
      </trkpt>
      <trkpt lat="46.93232" lon="5.43967">
        <ele>212.588623</ele>
        <time>2011-04-26T16:00:25Z</time>
      </trkpt>
      <trkpt lat="46.93259" lon="5.4395">
        <ele>212.108032</ele>
        <time>2011-04-26T16:00:30Z</time>
      </trkpt>
      <trkpt lat="46.93347" lon="5.43888">
        <ele>213.069336</ele>
        <time>2011-04-26T16:00:46Z</time>
      </trkpt>
      <trkpt lat="46.93521" lon="5.43818">
        <ele>212.588623</ele>
        <time>2011-04-26T16:01:15Z</time>
      </trkpt>
      <trkpt lat="46.93611" lon="5.43813">
        <ele>213.069336</ele>
        <time>2011-04-26T16:01:30Z</time>
      </trkpt>
      <trkpt lat="46.93754" lon="5.43828">
        <ele>212.108032</ele>
        <time>2011-04-26T16:01:56Z</time>
      </trkpt>
      <trkpt lat="46.93759" lon="5.43829">
        <ele>212.108032</ele>
        <time>2011-04-26T16:01:57Z</time>
      </trkpt>
      <trkpt lat="46.93795" lon="5.43828">
        <ele>213.069336</ele>
        <time>2011-04-26T16:02:03Z</time>
      </trkpt>
      <trkpt lat="46.93941" lon="5.43817">
        <ele>211.627441</ele>
        <time>2011-04-26T16:02:28Z</time>
      </trkpt>
      <trkpt lat="46.94039" lon="5.43786">
        <ele>208.743408</ele>
        <time>2011-04-26T16:02:43Z</time>
      </trkpt>
      <trkpt lat="46.94134" lon="5.43729">
        <ele>204.898071</ele>
        <time>2011-04-26T16:02:56Z</time>
      </trkpt>
      <trkpt lat="46.94149" lon="5.43721">
        <ele>204.41748</ele>
        <time>2011-04-26T16:02:58Z</time>
      </trkpt>
      <trkpt lat="46.94182" lon="5.43712">
        <ele>202.975464</ele>
        <time>2011-04-26T16:03:02Z</time>
      </trkpt>
      <trkpt lat="46.94296" lon="5.43672">
        <ele>201.533569</ele>
        <time>2011-04-26T16:03:17Z</time>
      </trkpt>
      <trkpt lat="46.94354" lon="5.43615">
        <ele>204.898071</ele>
        <time>2011-04-26T16:03:29Z</time>
      </trkpt>
      <trkpt lat="46.94425" lon="5.4355">
        <ele>207.782104</ele>
        <time>2011-04-26T16:03:44Z</time>
      </trkpt>
      <trkpt lat="46.94515" lon="5.43504">
        <ele>210.185425</ele>
        <time>2011-04-26T16:04:02Z</time>
      </trkpt>
      <trkpt lat="46.94617" lon="5.4347">
        <ele>206.820679</ele>
        <time>2011-04-26T16:04:19Z</time>
      </trkpt>
      <trkpt lat="46.94727" lon="5.43432">
        <ele>207.782104</ele>
        <time>2011-04-26T16:04:38Z</time>
      </trkpt>
      <trkpt lat="46.94827" lon="5.43394">
        <ele>208.743408</ele>
        <time>2011-04-26T16:04:54Z</time>
      </trkpt>
      <trkpt lat="46.94887" lon="5.43338">
        <ele>207.301392</ele>
        <time>2011-04-26T16:05:05Z</time>
      </trkpt>
      <trkpt lat="46.94929" lon="5.43296">
        <ele>204.41748</ele>
        <time>2011-04-26T16:05:12Z</time>
      </trkpt>
      <trkpt lat="46.94943" lon="5.43283">
        <ele>203.456177</ele>
        <time>2011-04-26T16:05:14Z</time>
      </trkpt>
      <trkpt lat="46.94975" lon="5.43263">
        <ele>202.975464</ele>
        <time>2011-04-26T16:05:18Z</time>
      </trkpt>
      <trkpt lat="46.95027" lon="5.43254">
        <ele>200.572266</ele>
        <time>2011-04-26T16:05:24Z</time>
      </trkpt>
      <trkpt lat="46.95104" lon="5.43267">
        <ele>201.052856</ele>
        <time>2011-04-26T16:05:36Z</time>
      </trkpt>
      <trkpt lat="46.95155" lon="5.43258">
        <ele>204.41748</ele>
        <time>2011-04-26T16:05:46Z</time>
      </trkpt>
      <trkpt lat="46.95169" lon="5.43254">
        <ele>205.859497</ele>
        <time>2011-04-26T16:05:49Z</time>
      </trkpt>
      <trkpt lat="46.95191" lon="5.43243">
        <ele>207.301392</ele>
        <time>2011-04-26T16:05:55Z</time>
      </trkpt>
      <trkpt lat="46.95266" lon="5.43213">
        <ele>210.185425</ele>
        <time>2011-04-26T16:06:11Z</time>
      </trkpt>
      <trkpt lat="46.95346" lon="5.43179">
        <ele>210.185425</ele>
        <time>2011-04-26T16:06:26Z</time>
      </trkpt>
      <trkpt lat="46.9541" lon="5.43092">
        <ele>209.704834</ele>
        <time>2011-04-26T16:06:40Z</time>
      </trkpt>
      <trkpt lat="46.95496" lon="5.42972">
        <ele>210.185425</ele>
        <time>2011-04-26T16:06:58Z</time>
      </trkpt>
      <trkpt lat="46.95546" lon="5.42931">
        <ele>211.627441</ele>
        <time>2011-04-26T16:07:06Z</time>
      </trkpt>
      <trkpt lat="46.95587" lon="5.42936">
        <ele>209.224121</ele>
        <time>2011-04-26T16:07:12Z</time>
      </trkpt>
      <trkpt lat="46.95661" lon="5.42983">
        <ele>207.301392</ele>
        <time>2011-04-26T16:07:25Z</time>
      </trkpt>
      <trkpt lat="46.95681" lon="5.42979">
        <ele>207.301392</ele>
        <time>2011-04-26T16:07:29Z</time>
      </trkpt>
      <trkpt lat="46.95775" lon="5.42891">
        <ele>206.820679</ele>
        <time>2011-04-26T16:07:49Z</time>
      </trkpt>
      <trkpt lat="46.95824" lon="5.42843">
        <ele>203.93689</ele>
        <time>2011-04-26T16:07:58Z</time>
      </trkpt>
      <trkpt lat="46.95934" lon="5.42694">
        <ele>201.052856</ele>
        <time>2011-04-26T16:08:18Z</time>
      </trkpt>
      <trkpt lat="46.95973" lon="5.42646">
        <ele>198.649536</ele>
        <time>2011-04-26T16:08:24Z</time>
      </trkpt>
      <trkpt lat="46.96018" lon="5.42595">
        <ele>196.246338</ele>
        <time>2011-04-26T16:08:30Z</time>
      </trkpt>
      <trkpt lat="46.9614" lon="5.42497">
        <ele>194.32373</ele>
        <time>2011-04-26T16:08:44Z</time>
      </trkpt>
      <trkpt lat="46.96174" lon="5.42474">
        <ele>193.843018</ele>
        <time>2011-04-26T16:08:48Z</time>
      </trkpt>
      <trkpt lat="46.96202" lon="5.4244">
        <ele>193.362305</ele>
        <time>2011-04-26T16:08:52Z</time>
      </trkpt>
      <trkpt lat="46.96288" lon="5.42328">
        <ele>191.439575</ele>
        <time>2011-04-26T16:09:05Z</time>
      </trkpt>
      <trkpt lat="46.96295" lon="5.42322">
        <ele>191.439575</ele>
        <time>2011-04-26T16:09:06Z</time>
      </trkpt>
      <trkpt lat="46.96378" lon="5.42217">
        <ele>190.478394</ele>
        <time>2011-04-26T16:09:20Z</time>
      </trkpt>
      <trkpt lat="46.96413" lon="5.42082">
        <ele>188.555786</ele>
        <time>2011-04-26T16:09:32Z</time>
      </trkpt>
      <trkpt lat="46.96455" lon="5.42039">
        <ele>189.036377</ele>
        <time>2011-04-26T16:09:39Z</time>
      </trkpt>
      <trkpt lat="46.96536" lon="5.42057">
        <ele>187.11377</ele>
        <time>2011-04-26T16:09:52Z</time>
      </trkpt>
      <trkpt lat="46.96612" lon="5.42105">
        <ele>188.555786</ele>
        <time>2011-04-26T16:10:08Z</time>
      </trkpt>
      <trkpt lat="46.96618" lon="5.42105">
        <ele>188.075073</ele>
        <time>2011-04-26T16:10:16Z</time>
      </trkpt>
      <trkpt lat="46.96626" lon="5.42071">
        <ele>189.516968</ele>
        <time>2011-04-26T16:10:27Z</time>
      </trkpt>
      <trkpt lat="46.96636" lon="5.41964">
        <ele>189.036377</ele>
        <time>2011-04-26T16:10:46Z</time>
      </trkpt>
      <trkpt lat="46.96649" lon="5.41835">
        <ele>188.075073</ele>
        <time>2011-04-26T16:10:59Z</time>
      </trkpt>
      <trkpt lat="46.96668" lon="5.41646">
        <ele>187.59436</ele>
        <time>2011-04-26T16:11:17Z</time>
      </trkpt>
      <trkpt lat="46.96671" lon="5.41615">
        <ele>186.633179</ele>
        <time>2011-04-26T16:11:20Z</time>
      </trkpt>
      <trkpt lat="46.96671" lon="5.41586">
        <ele>186.152466</ele>
        <time>2011-04-26T16:11:23Z</time>
      </trkpt>
      <trkpt lat="46.96679" lon="5.41548">
        <ele>186.633179</ele>
        <time>2011-04-26T16:11:27Z</time>
      </trkpt>
      <trkpt lat="46.96679" lon="5.41518">
        <ele>187.59436</ele>
        <time>2011-04-26T16:11:30Z</time>
      </trkpt>
      <trkpt lat="46.96717" lon="5.41351">
        <ele>184.710571</ele>
        <time>2011-04-26T16:11:48Z</time>
      </trkpt>
      <trkpt lat="46.96718" lon="5.41345">
        <ele>184.710571</ele>
        <time>2011-04-26T16:11:49Z</time>
      </trkpt>
      <trkpt lat="46.9673" lon="5.41332">
        <ele>184.710571</ele>
        <time>2011-04-26T16:11:53Z</time>
      </trkpt>
      <trkpt lat="46.9674" lon="5.41333">
        <ele>185.191162</ele>
        <time>2011-04-26T16:11:55Z</time>
      </trkpt>
      <trkpt lat="46.96847" lon="5.41341">
        <ele>187.11377</ele>
        <time>2011-04-26T16:12:13Z</time>
      </trkpt>
      <trkpt lat="46.96939" lon="5.41323">
        <ele>185.671753</ele>
        <time>2011-04-26T16:12:28Z</time>
      </trkpt>
      <trkpt lat="46.97026" lon="5.4128">
        <ele>185.671753</ele>
        <time>2011-04-26T16:12:43Z</time>
      </trkpt>
      <trkpt lat="46.97039" lon="5.41236">
        <ele>184.229858</ele>
        <time>2011-04-26T16:12:49Z</time>
      </trkpt>
      <trkpt lat="46.96995" lon="5.40941">
        <ele>185.191162</ele>
        <time>2011-04-26T16:13:20Z</time>
      </trkpt>
      <trkpt lat="46.96975" lon="5.40752">
        <ele>183.749023</ele>
        <time>2011-04-26T16:13:40Z</time>
      </trkpt>
      <trkpt lat="46.96974" lon="5.40733">
        <ele>183.749023</ele>
        <time>2011-04-26T16:13:42Z</time>
      </trkpt>
      <trkpt lat="46.96947" lon="5.40708">
        <ele>184.229858</ele>
        <time>2011-04-26T16:13:49Z</time>
      </trkpt>
      <trkpt lat="46.96936" lon="5.40711">
        <ele>184.229858</ele>
        <time>2011-04-26T16:13:51Z</time>
      </trkpt>
      <trkpt lat="46.96892" lon="5.40695">
        <ele>183.268433</ele>
        <time>2011-04-26T16:13:58Z</time>
      </trkpt>
      <trkpt lat="46.96878" lon="5.40661">
        <ele>183.268433</ele>
        <time>2011-04-26T16:14:03Z</time>
      </trkpt>
      <trkpt lat="46.9689" lon="5.40607">
        <ele>183.749023</ele>
        <time>2011-04-26T16:14:10Z</time>
      </trkpt>
      <trkpt lat="46.9691" lon="5.40598">
        <ele>185.671753</ele>
        <time>2011-04-26T16:14:15Z</time>
      </trkpt>
      <trkpt lat="46.96914" lon="5.40604">
        <ele>185.191162</ele>
        <time>2011-04-26T16:14:16Z</time>
      </trkpt>
      <trkpt lat="46.96926" lon="5.40621">
        <ele>184.710571</ele>
        <time>2011-04-26T16:14:19Z</time>
      </trkpt>
      <trkpt lat="46.97" lon="5.40649">
        <ele>185.191162</ele>
        <time>2011-04-26T16:14:32Z</time>
      </trkpt>
      <trkpt lat="46.9714" lon="5.40644">
        <ele>184.710571</ele>
        <time>2011-04-26T16:14:55Z</time>
      </trkpt>
      <trkpt lat="46.97243" lon="5.40658">
        <ele>183.749023</ele>
        <time>2011-04-26T16:15:12Z</time>
      </trkpt>
      <trkpt lat="46.97258" lon="5.40659">
        <ele>183.749023</ele>
        <time>2011-04-26T16:15:15Z</time>
      </trkpt>
      <trkpt lat="46.97266" lon="5.40661">
        <ele>183.749023</ele>
        <time>2011-04-26T16:15:17Z</time>
      </trkpt>
      <trkpt lat="46.97313" lon="5.4067">
        <ele>183.268433</ele>
        <time>2011-04-26T16:15:30Z</time>
      </trkpt>
      <trkpt lat="46.9736" lon="5.40681">
        <ele>185.191162</ele>
        <time>2011-04-26T16:15:42Z</time>
      </trkpt>
      <trkpt lat="46.97368" lon="5.40683">
        <ele>184.229858</ele>
        <time>2011-04-26T16:15:44Z</time>
      </trkpt>
      <trkpt lat="46.97382" lon="5.40687">
        <ele>184.710571</ele>
        <time>2011-04-26T16:15:47Z</time>
      </trkpt>
      <trkpt lat="46.97513" lon="5.40714">
        <ele>184.229858</ele>
        <time>2011-04-26T16:16:11Z</time>
      </trkpt>
      <trkpt lat="46.97649" lon="5.40739">
        <ele>184.229858</ele>
        <time>2011-04-26T16:16:36Z</time>
      </trkpt>
      <trkpt lat="46.97668" lon="5.4074">
        <ele>185.191162</ele>
        <time>2011-04-26T16:16:40Z</time>
      </trkpt>
      <trkpt lat="46.97755" lon="5.40758">
        <ele>186.152466</ele>
        <time>2011-04-26T16:16:57Z</time>
      </trkpt>
      <trkpt lat="46.97819" lon="5.40769">
        <ele>185.671753</ele>
        <time>2011-04-26T16:17:09Z</time>
      </trkpt>
      <trkpt lat="46.97839" lon="5.40766">
        <ele>184.710571</ele>
        <time>2011-04-26T16:17:13Z</time>
      </trkpt>
      <trkpt lat="46.97845" lon="5.40764">
        <ele>184.229858</ele>
        <time>2011-04-26T16:17:14Z</time>
      </trkpt>
      <trkpt lat="46.97934" lon="5.40724">
        <ele>185.191162</ele>
        <time>2011-04-26T16:17:30Z</time>
      </trkpt>
      <trkpt lat="46.98007" lon="5.40738">
        <ele>184.710571</ele>
        <time>2011-04-26T16:17:43Z</time>
      </trkpt>
      <trkpt lat="46.9804" lon="5.4075">
        <ele>184.229858</ele>
        <time>2011-04-26T16:17:49Z</time>
      </trkpt>
      <trkpt lat="46.98139" lon="5.40776">
        <ele>185.191162</ele>
        <time>2011-04-26T16:18:07Z</time>
      </trkpt>
      <trkpt lat="46.98221" lon="5.40809">
        <ele>184.710571</ele>
        <time>2011-04-26T16:18:20Z</time>
      </trkpt>
      <trkpt lat="46.9825" lon="5.40821">
        <ele>185.671753</ele>
        <time>2011-04-26T16:18:25Z</time>
      </trkpt>
      <trkpt lat="46.98273" lon="5.40827">
        <ele>187.11377</ele>
        <time>2011-04-26T16:18:29Z</time>
      </trkpt>
      <trkpt lat="46.98294" lon="5.40827">
        <ele>186.633179</ele>
        <time>2011-04-26T16:18:32Z</time>
      </trkpt>
      <trkpt lat="46.98327" lon="5.40803">
        <ele>185.671753</ele>
        <time>2011-04-26T16:18:37Z</time>
      </trkpt>
      <trkpt lat="46.98377" lon="5.40729">
        <ele>185.671753</ele>
        <time>2011-04-26T16:18:47Z</time>
      </trkpt>
      <trkpt lat="46.98423" lon="5.40654">
        <ele>183.268433</ele>
        <time>2011-04-26T16:19:02Z</time>
      </trkpt>
      <trkpt lat="46.98473" lon="5.40615">
        <ele>183.268433</ele>
        <time>2011-04-26T16:19:17Z</time>
      </trkpt>
      <trkpt lat="46.9849" lon="5.40611">
        <ele>183.749023</ele>
        <time>2011-04-26T16:19:21Z</time>
      </trkpt>
      <trkpt lat="46.98556" lon="5.4059">
        <ele>184.229858</ele>
        <time>2011-04-26T16:19:36Z</time>
      </trkpt>
      <trkpt lat="46.98569" lon="5.40589">
        <ele>184.229858</ele>
        <time>2011-04-26T16:19:39Z</time>
      </trkpt>
      <trkpt lat="46.98664" lon="5.40579">
        <ele>184.229858</ele>
        <time>2011-04-26T16:20:00Z</time>
      </trkpt>
      <trkpt lat="46.9876" lon="5.40571">
        <ele>184.229858</ele>
        <time>2011-04-26T16:20:21Z</time>
      </trkpt>
      <trkpt lat="46.98769" lon="5.4057">
        <ele>184.710571</ele>
        <time>2011-04-26T16:20:23Z</time>
      </trkpt>
      <trkpt lat="46.98847" lon="5.40556">
        <ele>183.749023</ele>
        <time>2011-04-26T16:20:37Z</time>
      </trkpt>
      <trkpt lat="46.98929" lon="5.4059">
        <ele>184.229858</ele>
        <time>2011-04-26T16:20:51Z</time>
      </trkpt>
      <trkpt lat="46.99051" lon="5.40655">
        <ele>184.229858</ele>
        <time>2011-04-26T16:21:13Z</time>
      </trkpt>
      <trkpt lat="46.99166" lon="5.40701">
        <ele>184.229858</ele>
        <time>2011-04-26T16:21:34Z</time>
      </trkpt>
      <trkpt lat="46.99244" lon="5.40679">
        <ele>185.191162</ele>
        <time>2011-04-26T16:21:47Z</time>
      </trkpt>
      <trkpt lat="46.99287" lon="5.40669">
        <ele>184.229858</ele>
        <time>2011-04-26T16:21:54Z</time>
      </trkpt>
      <trkpt lat="46.99364" lon="5.40667">
        <ele>184.710571</ele>
        <time>2011-04-26T16:22:07Z</time>
      </trkpt>
      <trkpt lat="46.99458" lon="5.40623">
        <ele>185.191162</ele>
        <time>2011-04-26T16:22:24Z</time>
      </trkpt>
      <trkpt lat="46.9961" lon="5.40518">
        <ele>184.229858</ele>
        <time>2011-04-26T16:22:52Z</time>
      </trkpt>
      <trkpt lat="46.99682" lon="5.404">
        <ele>185.191162</ele>
        <time>2011-04-26T16:23:09Z</time>
      </trkpt>
      <trkpt lat="46.99769" lon="5.40312">
        <ele>184.710571</ele>
        <time>2011-04-26T16:23:26Z</time>
      </trkpt>
      <trkpt lat="46.99858" lon="5.4028">
        <ele>184.229858</ele>
        <time>2011-04-26T16:23:41Z</time>
      </trkpt>
      <trkpt lat="46.99958" lon="5.40185">
        <ele>184.229858</ele>
        <time>2011-04-26T16:24:00Z</time>
      </trkpt>
      <trkpt lat="47.00013" lon="5.40161">
        <ele>184.229858</ele>
        <time>2011-04-26T16:24:10Z</time>
      </trkpt>
      <trkpt lat="47.0004" lon="5.40108">
        <ele>183.749023</ele>
        <time>2011-04-26T16:24:18Z</time>
      </trkpt>
      <trkpt lat="47.00042" lon="5.40081">
        <ele>183.749023</ele>
        <time>2011-04-26T16:24:21Z</time>
      </trkpt>
      <trkpt lat="47.00041" lon="5.40036">
        <ele>183.268433</ele>
        <time>2011-04-26T16:24:26Z</time>
      </trkpt>
      <trkpt lat="47.00029" lon="5.39992">
        <ele>184.710571</ele>
        <time>2011-04-26T16:24:31Z</time>
      </trkpt>
      <trkpt lat="46.99959" lon="5.39842">
        <ele>183.749023</ele>
        <time>2011-04-26T16:24:50Z</time>
      </trkpt>
      <trkpt lat="46.9995" lon="5.39816">
        <ele>183.268433</ele>
        <time>2011-04-26T16:24:53Z</time>
      </trkpt>
      <trkpt lat="46.99944" lon="5.39788">
        <ele>183.749023</ele>
        <time>2011-04-26T16:24:56Z</time>
      </trkpt>
      <trkpt lat="46.99955" lon="5.39612">
        <ele>182.787842</ele>
        <time>2011-04-26T16:25:15Z</time>
      </trkpt>
      <trkpt lat="46.99972" lon="5.39349">
        <ele>183.749023</ele>
        <time>2011-04-26T16:25:43Z</time>
      </trkpt>
      <trkpt lat="47.00001" lon="5.39194">
        <ele>183.268433</ele>
        <time>2011-04-26T16:26:00Z</time>
      </trkpt>
      <trkpt lat="47.00024" lon="5.39137">
        <ele>182.787842</ele>
        <time>2011-04-26T16:26:07Z</time>
      </trkpt>
      <trkpt lat="47.00035" lon="5.3903">
        <ele>182.307129</ele>
        <time>2011-04-26T16:26:18Z</time>
      </trkpt>
      <trkpt lat="47.00062" lon="5.38977">
        <ele>183.749023</ele>
        <time>2011-04-26T16:26:25Z</time>
      </trkpt>
      <trkpt lat="47.00089" lon="5.38969">
        <ele>184.710571</ele>
        <time>2011-04-26T16:26:30Z</time>
      </trkpt>
      <trkpt lat="47.00173" lon="5.38992">
        <ele>184.710571</ele>
        <time>2011-04-26T16:26:46Z</time>
      </trkpt>
      <trkpt lat="47.00265" lon="5.39023">
        <ele>184.710571</ele>
        <time>2011-04-26T16:27:03Z</time>
      </trkpt>
      <trkpt lat="47.00289" lon="5.39032">
        <ele>187.11377</ele>
        <time>2011-04-26T16:27:07Z</time>
      </trkpt>
      <trkpt lat="47.00302" lon="5.39035">
        <ele>185.191162</ele>
        <time>2011-04-26T16:27:09Z</time>
      </trkpt>
      <trkpt lat="47.00358" lon="5.39055">
        <ele>183.268433</ele>
        <time>2011-04-26T16:27:18Z</time>
      </trkpt>
      <trkpt lat="47.00511" lon="5.39105">
        <ele>183.268433</ele>
        <time>2011-04-26T16:27:43Z</time>
      </trkpt>
      <trkpt lat="47.00535" lon="5.39109">
        <ele>182.307129</ele>
        <time>2011-04-26T16:27:47Z</time>
      </trkpt>
      <trkpt lat="47.00569" lon="5.39098">
        <ele>183.268433</ele>
        <time>2011-04-26T16:27:53Z</time>
      </trkpt>
      <trkpt lat="47.00659" lon="5.39015">
        <ele>184.229858</ele>
        <time>2011-04-26T16:28:12Z</time>
      </trkpt>
      <trkpt lat="47.00731" lon="5.38944">
        <ele>184.229858</ele>
        <time>2011-04-26T16:28:27Z</time>
      </trkpt>
      <trkpt lat="47.00739" lon="5.38933">
        <ele>182.787842</ele>
        <time>2011-04-26T16:28:29Z</time>
      </trkpt>
      <trkpt lat="47.00793" lon="5.38818">
        <ele>181.826416</ele>
        <time>2011-04-26T16:28:46Z</time>
      </trkpt>
      <trkpt lat="47.00849" lon="5.38665">
        <ele>182.307129</ele>
        <time>2011-04-26T16:29:06Z</time>
      </trkpt>
      <trkpt lat="47.00871" lon="5.38639">
        <ele>181.826416</ele>
        <time>2011-04-26T16:29:11Z</time>
      </trkpt>
      <trkpt lat="47.00919" lon="5.3862">
        <ele>183.268433</ele>
        <time>2011-04-26T16:29:20Z</time>
      </trkpt>
      <trkpt lat="47.00935" lon="5.38638">
        <ele>182.307129</ele>
        <time>2011-04-26T16:29:25Z</time>
      </trkpt>
      <trkpt lat="47.0093" lon="5.38705">
        <ele>183.268433</ele>
        <time>2011-04-26T16:29:35Z</time>
      </trkpt>
      <trkpt lat="47.0093" lon="5.38712">
        <ele>182.787842</ele>
        <time>2011-04-26T16:29:36Z</time>
      </trkpt>
      <trkpt lat="47.0092" lon="5.38806">
        <ele>182.307129</ele>
        <time>2011-04-26T16:29:49Z</time>
      </trkpt>
      <trkpt lat="47.00948" lon="5.38842">
        <ele>183.268433</ele>
        <time>2011-04-26T16:29:57Z</time>
      </trkpt>
      <trkpt lat="47.00969" lon="5.38834">
        <ele>183.268433</ele>
        <time>2011-04-26T16:30:01Z</time>
      </trkpt>
      <trkpt lat="47.00996" lon="5.38834">
        <ele>182.787842</ele>
        <time>2011-04-26T16:30:06Z</time>
      </trkpt>
      <trkpt lat="47.01017" lon="5.38844">
        <ele>182.307129</ele>
        <time>2011-04-26T16:30:10Z</time>
      </trkpt>
      <trkpt lat="47.01049" lon="5.38875">
        <ele>183.749023</ele>
        <time>2011-04-26T16:30:17Z</time>
      </trkpt>
      <trkpt lat="47.01054" lon="5.38878">
        <ele>183.268433</ele>
        <time>2011-04-26T16:30:18Z</time>
      </trkpt>
      <trkpt lat="47.01103" lon="5.38901">
        <ele>184.229858</ele>
        <time>2011-04-26T16:30:30Z</time>
      </trkpt>
      <trkpt lat="47.01201" lon="5.38938">
        <ele>184.710571</ele>
        <time>2011-04-26T16:30:50Z</time>
      </trkpt>
      <trkpt lat="47.01306" lon="5.39012">
        <ele>184.710571</ele>
        <time>2011-04-26T16:31:11Z</time>
      </trkpt>
      <trkpt lat="47.01449" lon="5.39125">
        <ele>184.229858</ele>
        <time>2011-04-26T16:31:39Z</time>
      </trkpt>
      <trkpt lat="47.01585" lon="5.3923">
        <ele>185.191162</ele>
        <time>2011-04-26T16:32:05Z</time>
      </trkpt>
      <trkpt lat="47.01679" lon="5.39323">
        <ele>184.710571</ele>
        <time>2011-04-26T16:32:26Z</time>
      </trkpt>
      <trkpt lat="47.01764" lon="5.39401">
        <ele>184.229858</ele>
        <time>2011-04-26T16:32:45Z</time>
      </trkpt>
      <trkpt lat="47.01898" lon="5.39514">
        <ele>183.268433</ele>
        <time>2011-04-26T16:33:14Z</time>
      </trkpt>
      <trkpt lat="47.02021" lon="5.39636">
        <ele>183.268433</ele>
        <time>2011-04-26T16:33:40Z</time>
      </trkpt>
      <trkpt lat="47.02136" lon="5.39762">
        <ele>184.710571</ele>
        <time>2011-04-26T16:34:06Z</time>
      </trkpt>
      <trkpt lat="47.02217" lon="5.39847">
        <ele>184.710571</ele>
        <time>2011-04-26T16:34:23Z</time>
      </trkpt>
      <trkpt lat="47.02308" lon="5.39937">
        <ele>184.710571</ele>
        <time>2011-04-26T16:34:43Z</time>
      </trkpt>
      <trkpt lat="47.02451" lon="5.40075">
        <ele>184.710571</ele>
        <time>2011-04-26T16:35:13Z</time>
      </trkpt>
      <trkpt lat="47.02552" lon="5.40165">
        <ele>183.749023</ele>
        <time>2011-04-26T16:35:33Z</time>
      </trkpt>
      <trkpt lat="47.02661" lon="5.40261">
        <ele>183.749023</ele>
        <time>2011-04-26T16:35:54Z</time>
      </trkpt>
      <trkpt lat="47.02759" lon="5.40331">
        <ele>184.229858</ele>
        <time>2011-04-26T16:36:12Z</time>
      </trkpt>
      <trkpt lat="47.02896" lon="5.40422">
        <ele>184.229858</ele>
        <time>2011-04-26T16:36:35Z</time>
      </trkpt>
      <trkpt lat="47.03032" lon="5.40515">
        <ele>183.268433</ele>
        <time>2011-04-26T16:36:59Z</time>
      </trkpt>
      <trkpt lat="47.03082" lon="5.40562">
        <ele>183.268433</ele>
        <time>2011-04-26T16:37:09Z</time>
      </trkpt>
      <trkpt lat="47.03116" lon="5.40638">
        <ele>183.268433</ele>
        <time>2011-04-26T16:37:20Z</time>
      </trkpt>
      <trkpt lat="47.03111" lon="5.40706">
        <ele>182.307129</ele>
        <time>2011-04-26T16:37:29Z</time>
      </trkpt>
      <trkpt lat="47.03093" lon="5.4072">
        <ele>182.307129</ele>
        <time>2011-04-26T16:37:33Z</time>
      </trkpt>
      <trkpt lat="47.03064" lon="5.40738">
        <ele>182.307129</ele>
        <time>2011-04-26T16:37:39Z</time>
      </trkpt>
      <trkpt lat="47.03048" lon="5.40787">
        <ele>185.191162</ele>
        <time>2011-04-26T16:37:48Z</time>
      </trkpt>
      <trkpt lat="47.0305" lon="5.40792">
        <ele>185.191162</ele>
        <time>2011-04-26T16:37:49Z</time>
      </trkpt>
      <trkpt lat="47.03055" lon="5.40804">
        <ele>184.710571</ele>
        <time>2011-04-26T16:38:01Z</time>
      </trkpt>
      <trkpt lat="47.03057" lon="5.40808">
        <ele>185.191162</ele>
        <time>2011-04-26T16:38:05Z</time>
      </trkpt>
      <trkpt lat="47.03064" lon="5.40803">
        <ele>185.191162</ele>
        <time>2011-04-26T16:38:10Z</time>
      </trkpt>
      <trkpt lat="47.03099" lon="5.40747">
        <ele>187.59436</ele>
        <time>2011-04-26T16:38:28Z</time>
      </trkpt>
      <trkpt lat="47.0311" lon="5.40737">
        <ele>187.59436</ele>
        <time>2011-04-26T16:38:31Z</time>
      </trkpt>
      <trkpt lat="47.03128" lon="5.40728">
        <ele>188.075073</ele>
        <time>2011-04-26T16:38:35Z</time>
      </trkpt>
      <trkpt lat="47.03179" lon="5.40715">
        <ele>188.555786</ele>
        <time>2011-04-26T16:38:51Z</time>
      </trkpt>
      <trkpt lat="47.03213" lon="5.40713">
        <ele>189.036377</ele>
        <time>2011-04-26T16:39:00Z</time>
      </trkpt>
      <trkpt lat="47.03248" lon="5.40742">
        <ele>187.11377</ele>
        <time>2011-04-26T16:39:08Z</time>
      </trkpt>
      <trkpt lat="47.03274" lon="5.40779">
        <ele>186.633179</ele>
        <time>2011-04-26T16:39:14Z</time>
      </trkpt>
      <trkpt lat="47.03287" lon="5.40801">
        <ele>186.152466</ele>
        <time>2011-04-26T16:39:17Z</time>
      </trkpt>
      <trkpt lat="47.03316" lon="5.40821">
        <ele>184.229858</ele>
        <time>2011-04-26T16:39:22Z</time>
      </trkpt>
      <trkpt lat="47.03333" lon="5.40824">
        <ele>183.749023</ele>
        <time>2011-04-26T16:39:25Z</time>
      </trkpt>
      <trkpt lat="47.03352" lon="5.40816">
        <ele>182.307129</ele>
        <time>2011-04-26T16:39:29Z</time>
      </trkpt>
      <trkpt lat="47.03376" lon="5.40825">
        <ele>182.307129</ele>
        <time>2011-04-26T16:39:34Z</time>
      </trkpt>
      <trkpt lat="47.03403" lon="5.40849">
        <ele>182.307129</ele>
        <time>2011-04-26T16:39:40Z</time>
      </trkpt>
      <trkpt lat="47.03474" lon="5.40956">
        <ele>181.826416</ele>
        <time>2011-04-26T16:39:58Z</time>
      </trkpt>
      <trkpt lat="47.03518" lon="5.41007">
        <ele>181.826416</ele>
        <time>2011-04-26T16:40:08Z</time>
      </trkpt>
      <trkpt lat="47.03548" lon="5.41023">
        <ele>181.826416</ele>
        <time>2011-04-26T16:40:16Z</time>
      </trkpt>
      <trkpt lat="47.03583" lon="5.41091">
        <ele>182.307129</ele>
        <time>2011-04-26T16:40:28Z</time>
      </trkpt>
      <trkpt lat="47.03651" lon="5.41207">
        <ele>181.826416</ele>
        <time>2011-04-26T16:40:47Z</time>
      </trkpt>
      <trkpt lat="47.03749" lon="5.41327">
        <ele>182.307129</ele>
        <time>2011-04-26T16:41:10Z</time>
      </trkpt>
      <trkpt lat="47.03804" lon="5.41339">
        <ele>181.826416</ele>
        <time>2011-04-26T16:41:20Z</time>
      </trkpt>
      <trkpt lat="47.03822" lon="5.41338">
        <ele>181.345825</ele>
        <time>2011-04-26T16:41:24Z</time>
      </trkpt>
      <trkpt lat="47.03856" lon="5.41311">
        <ele>181.345825</ele>
        <time>2011-04-26T16:41:37Z</time>
      </trkpt>
      <trkpt lat="47.03857" lon="5.4131">
        <ele>180.865234</ele>
        <time>2011-04-26T16:41:41Z</time>
      </trkpt>
      <trkpt lat="47.03866" lon="5.41317">
        <ele>182.307129</ele>
        <time>2011-04-26T16:41:46Z</time>
      </trkpt>
      <trkpt lat="47.0388" lon="5.41338">
        <ele>181.826416</ele>
        <time>2011-04-26T16:41:51Z</time>
      </trkpt>
      <trkpt lat="47.039" lon="5.4135">
        <ele>181.345825</ele>
        <time>2011-04-26T16:41:56Z</time>
      </trkpt>
      <trkpt lat="47.0391" lon="5.4135">
        <ele>181.826416</ele>
        <time>2011-04-26T16:41:58Z</time>
      </trkpt>
      <trkpt lat="47.0393" lon="5.4136">
        <ele>181.345825</ele>
        <time>2011-04-26T16:42:02Z</time>
      </trkpt>
      <trkpt lat="47.04028" lon="5.41441">
        <ele>181.826416</ele>
        <time>2011-04-26T16:42:22Z</time>
      </trkpt>
      <trkpt lat="47.04112" lon="5.41458">
        <ele>182.787842</ele>
        <time>2011-04-26T16:42:37Z</time>
      </trkpt>
      <trkpt lat="47.04128" lon="5.41456">
        <ele>182.787842</ele>
        <time>2011-04-26T16:42:40Z</time>
      </trkpt>
      <trkpt lat="47.04238" lon="5.41467">
        <ele>182.307129</ele>
        <time>2011-04-26T16:43:00Z</time>
      </trkpt>
      <trkpt lat="47.0425" lon="5.4147">
        <ele>181.826416</ele>
        <time>2011-04-26T16:43:04Z</time>
      </trkpt>
      <trkpt lat="47.04257" lon="5.41468">
        <ele>181.826416</ele>
        <time>2011-04-26T16:43:06Z</time>
      </trkpt>
      <trkpt lat="47.04335" lon="5.41492">
        <ele>181.826416</ele>
        <time>2011-04-26T16:43:22Z</time>
      </trkpt>
      <trkpt lat="47.04426" lon="5.41558">
        <ele>181.826416</ele>
        <time>2011-04-26T16:43:40Z</time>
      </trkpt>
      <trkpt lat="47.04536" lon="5.41631">
        <ele>181.826416</ele>
        <time>2011-04-26T16:44:00Z</time>
      </trkpt>
      <trkpt lat="47.04588" lon="5.41711">
        <ele>181.826416</ele>
        <time>2011-04-26T16:44:13Z</time>
      </trkpt>
      <trkpt lat="47.04595" lon="5.41725">
        <ele>182.307129</ele>
        <time>2011-04-26T16:44:16Z</time>
      </trkpt>
      <trkpt lat="47.04601" lon="5.41732">
        <ele>181.826416</ele>
        <time>2011-04-26T16:44:18Z</time>
      </trkpt>
      <trkpt lat="47.04627" lon="5.41781">
        <ele>182.307129</ele>
        <time>2011-04-26T16:44:27Z</time>
      </trkpt>
      <trkpt lat="47.04686" lon="5.41846">
        <ele>182.307129</ele>
        <time>2011-04-26T16:44:42Z</time>
      </trkpt>
      <trkpt lat="47.04708" lon="5.41869">
        <ele>181.826416</ele>
        <time>2011-04-26T16:44:53Z</time>
      </trkpt>
      <trkpt lat="47.04717" lon="5.41856">
        <ele>181.826416</ele>
        <time>2011-04-26T16:45:05Z</time>
      </trkpt>
      <trkpt lat="47.04732" lon="5.41777">
        <ele>182.307129</ele>
        <time>2011-04-26T16:45:18Z</time>
      </trkpt>
      <trkpt lat="47.04772" lon="5.41652">
        <ele>181.826416</ele>
        <time>2011-04-26T16:45:35Z</time>
      </trkpt>
      <trkpt lat="47.04834" lon="5.41472">
        <ele>182.787842</ele>
        <time>2011-04-26T16:45:58Z</time>
      </trkpt>
      <trkpt lat="47.04849" lon="5.41423">
        <ele>182.787842</ele>
        <time>2011-04-26T16:46:05Z</time>
      </trkpt>
      <trkpt lat="47.04863" lon="5.41403">
        <ele>182.307129</ele>
        <time>2011-04-26T16:46:09Z</time>
      </trkpt>
      <trkpt lat="47.04885" lon="5.41395">
        <ele>182.787842</ele>
        <time>2011-04-26T16:46:13Z</time>
      </trkpt>
      <trkpt lat="47.0503" lon="5.41395">
        <ele>182.307129</ele>
        <time>2011-04-26T16:46:37Z</time>
      </trkpt>
      <trkpt lat="47.05133" lon="5.41396">
        <ele>181.826416</ele>
        <time>2011-04-26T16:46:55Z</time>
      </trkpt>
      <trkpt lat="47.05206" lon="5.41396">
        <ele>183.749023</ele>
        <time>2011-04-26T16:47:08Z</time>
      </trkpt>
      <trkpt lat="47.05211" lon="5.41397">
        <ele>182.787842</ele>
        <time>2011-04-26T16:47:09Z</time>
      </trkpt>
      <trkpt lat="47.05235" lon="5.41415">
        <ele>182.787842</ele>
        <time>2011-04-26T16:47:14Z</time>
      </trkpt>
      <trkpt lat="47.05255" lon="5.41407">
        <ele>182.787842</ele>
        <time>2011-04-26T16:47:18Z</time>
      </trkpt>
      <trkpt lat="47.05265" lon="5.41399">
        <ele>182.787842</ele>
        <time>2011-04-26T16:47:20Z</time>
      </trkpt>
      <trkpt lat="47.05428" lon="5.41394">
        <ele>182.787842</ele>
        <time>2011-04-26T16:47:48Z</time>
      </trkpt>
      <trkpt lat="47.05517" lon="5.41394">
        <ele>182.307129</ele>
        <time>2011-04-26T16:48:04Z</time>
      </trkpt>
      <trkpt lat="47.05605" lon="5.41396">
        <ele>181.826416</ele>
        <time>2011-04-26T16:48:20Z</time>
      </trkpt>
      <trkpt lat="47.05643" lon="5.4141">
        <ele>182.307129</ele>
        <time>2011-04-26T16:48:27Z</time>
      </trkpt>
      <trkpt lat="47.05664" lon="5.4141">
        <ele>181.826416</ele>
        <time>2011-04-26T16:48:31Z</time>
      </trkpt>
      <trkpt lat="47.05695" lon="5.41395">
        <ele>182.787842</ele>
        <time>2011-04-26T16:48:37Z</time>
      </trkpt>
      <trkpt lat="47.05745" lon="5.41392">
        <ele>182.307129</ele>
        <time>2011-04-26T16:48:46Z</time>
      </trkpt>
      <trkpt lat="47.05775" lon="5.41367">
        <ele>182.787842</ele>
        <time>2011-04-26T16:48:52Z</time>
      </trkpt>
      <trkpt lat="47.05815" lon="5.41298">
        <ele>182.787842</ele>
        <time>2011-04-26T16:49:02Z</time>
      </trkpt>
      <trkpt lat="47.05824" lon="5.41286">
        <ele>182.787842</ele>
        <time>2011-04-26T16:49:04Z</time>
      </trkpt>
      <trkpt lat="47.05855" lon="5.41271">
        <ele>183.268433</ele>
        <time>2011-04-26T16:49:09Z</time>
      </trkpt>
      <trkpt lat="47.05882" lon="5.41271">
        <ele>184.710571</ele>
        <time>2011-04-26T16:49:13Z</time>
      </trkpt>
      <trkpt lat="47.05933" lon="5.41272">
        <ele>186.633179</ele>
        <time>2011-04-26T16:49:25Z</time>
      </trkpt>
      <trkpt lat="47.05936" lon="5.41273">
        <ele>186.633179</ele>
        <time>2011-04-26T16:49:26Z</time>
      </trkpt>
      <trkpt lat="47.05938" lon="5.41287">
        <ele>186.152466</ele>
        <time>2011-04-26T16:49:30Z</time>
      </trkpt>
      <trkpt lat="47.05936" lon="5.41314">
        <ele>185.671753</ele>
        <time>2011-04-26T16:49:35Z</time>
      </trkpt>
      <trkpt lat="47.05944" lon="5.41436">
        <ele>185.671753</ele>
        <time>2011-04-26T16:49:54Z</time>
      </trkpt>
      <trkpt lat="47.0595" lon="5.41626">
        <ele>185.191162</ele>
        <time>2011-04-26T16:50:17Z</time>
      </trkpt>
      <trkpt lat="47.0595" lon="5.41811">
        <ele>185.671753</ele>
        <time>2011-04-26T16:50:37Z</time>
      </trkpt>
      <trkpt lat="47.05951" lon="5.41971">
        <ele>185.671753</ele>
        <time>2011-04-26T16:50:55Z</time>
      </trkpt>
      <trkpt lat="47.05953" lon="5.42213">
        <ele>185.671753</ele>
        <time>2011-04-26T16:51:20Z</time>
      </trkpt>
      <trkpt lat="47.05952" lon="5.42408">
        <ele>185.191162</ele>
        <time>2011-04-26T16:51:40Z</time>
      </trkpt>
      <trkpt lat="47.0595" lon="5.42563">
        <ele>186.633179</ele>
        <time>2011-04-26T16:51:55Z</time>
      </trkpt>
      <trkpt lat="47.05947" lon="5.4267">
        <ele>187.11377</ele>
        <time>2011-04-26T16:52:09Z</time>
      </trkpt>
      <trkpt lat="47.05947" lon="5.42679">
        <ele>188.555786</ele>
        <time>2011-04-26T16:52:13Z</time>
      </trkpt>
      <trkpt lat="47.05968" lon="5.42683">
        <ele>189.516968</ele>
        <time>2011-04-26T16:52:24Z</time>
      </trkpt>
      <trkpt lat="47.05971" lon="5.42708">
        <ele>187.59436</ele>
        <time>2011-04-26T16:52:29Z</time>
      </trkpt>
      <trkpt lat="47.0597" lon="5.42853">
        <ele>185.671753</ele>
        <time>2011-04-26T16:52:45Z</time>
      </trkpt>
      <trkpt lat="47.05967" lon="5.42929">
        <ele>186.152466</ele>
        <time>2011-04-26T16:52:54Z</time>
      </trkpt>
      <trkpt lat="47.0596" lon="5.42963">
        <ele>185.671753</ele>
        <time>2011-04-26T16:52:58Z</time>
      </trkpt>
      <trkpt lat="47.05967" lon="5.42996">
        <ele>185.671753</ele>
        <time>2011-04-26T16:53:02Z</time>
      </trkpt>
      <trkpt lat="47.05971" lon="5.4317">
        <ele>186.152466</ele>
        <time>2011-04-26T16:53:21Z</time>
      </trkpt>
      <trkpt lat="47.05972" lon="5.43424">
        <ele>186.152466</ele>
        <time>2011-04-26T16:53:47Z</time>
      </trkpt>
      <trkpt lat="47.05971" lon="5.43587">
        <ele>185.671753</ele>
        <time>2011-04-26T16:54:06Z</time>
      </trkpt>
      <trkpt lat="47.05975" lon="5.43678">
        <ele>186.633179</ele>
        <time>2011-04-26T16:54:19Z</time>
      </trkpt>
      <trkpt lat="47.05976" lon="5.43739">
        <ele>187.59436</ele>
        <time>2011-04-26T16:54:27Z</time>
      </trkpt>
      <trkpt lat="47.05975" lon="5.43769">
        <ele>186.152466</ele>
        <time>2011-04-26T16:54:31Z</time>
      </trkpt>
      <trkpt lat="47.05937" lon="5.43862">
        <ele>185.671753</ele>
        <time>2011-04-26T16:54:45Z</time>
      </trkpt>
      <trkpt lat="47.05856" lon="5.43974">
        <ele>187.11377</ele>
        <time>2011-04-26T16:55:04Z</time>
      </trkpt>
      <trkpt lat="47.0572" lon="5.44147">
        <ele>185.671753</ele>
        <time>2011-04-26T16:55:32Z</time>
      </trkpt>
      <trkpt lat="47.05676" lon="5.44199">
        <ele>186.633179</ele>
        <time>2011-04-26T16:55:41Z</time>
      </trkpt>
      <trkpt lat="47.05654" lon="5.4421">
        <ele>186.152466</ele>
        <time>2011-04-26T16:55:45Z</time>
      </trkpt>
      <trkpt lat="47.05638" lon="5.44223">
        <ele>185.671753</ele>
        <time>2011-04-26T16:55:48Z</time>
      </trkpt>
      <trkpt lat="47.05629" lon="5.44256">
        <ele>187.11377</ele>
        <time>2011-04-26T16:55:52Z</time>
      </trkpt>
      <trkpt lat="47.05569" lon="5.44338">
        <ele>187.59436</ele>
        <time>2011-04-26T16:56:07Z</time>
      </trkpt>
      <trkpt lat="47.05566" lon="5.44344">
        <ele>187.59436</ele>
        <time>2011-04-26T16:56:08Z</time>
      </trkpt>
      <trkpt lat="47.05551" lon="5.44384">
        <ele>188.075073</ele>
        <time>2011-04-26T16:56:13Z</time>
      </trkpt>
      <trkpt lat="47.05552" lon="5.44437">
        <ele>188.555786</ele>
        <time>2011-04-26T16:56:19Z</time>
      </trkpt>
      <trkpt lat="47.05606" lon="5.44601">
        <ele>189.036377</ele>
        <time>2011-04-26T16:56:39Z</time>
      </trkpt>
      <trkpt lat="47.05661" lon="5.44784">
        <ele>189.997681</ele>
        <time>2011-04-26T16:57:00Z</time>
      </trkpt>
      <trkpt lat="47.05715" lon="5.44953">
        <ele>189.997681</ele>
        <time>2011-04-26T16:57:20Z</time>
      </trkpt>
      <trkpt lat="47.05758" lon="5.45098">
        <ele>188.555786</ele>
        <time>2011-04-26T16:57:37Z</time>
      </trkpt>
      <trkpt lat="47.05812" lon="5.45269">
        <ele>188.555786</ele>
        <time>2011-04-26T16:57:58Z</time>
      </trkpt>
      <trkpt lat="47.05858" lon="5.45421">
        <ele>189.036377</ele>
        <time>2011-04-26T16:58:17Z</time>
      </trkpt>
      <trkpt lat="47.05861" lon="5.45429">
        <ele>188.555786</ele>
        <time>2011-04-26T16:58:18Z</time>
      </trkpt>
      <trkpt lat="47.05911" lon="5.45575">
        <ele>189.516968</ele>
        <time>2011-04-26T16:58:37Z</time>
      </trkpt>
      <trkpt lat="47.05975" lon="5.45778">
        <ele>189.036377</ele>
        <time>2011-04-26T16:59:02Z</time>
      </trkpt>
      <trkpt lat="47.06007" lon="5.4588">
        <ele>189.036377</ele>
        <time>2011-04-26T16:59:17Z</time>
      </trkpt>
      <trkpt lat="47.06038" lon="5.45986">
        <ele>188.555786</ele>
        <time>2011-04-26T16:59:33Z</time>
      </trkpt>
      <trkpt lat="47.06074" lon="5.46071">
        <ele>188.555786</ele>
        <time>2011-04-26T16:59:50Z</time>
      </trkpt>
      <trkpt lat="47.06089" lon="5.46084">
        <ele>190.478394</ele>
        <time>2011-04-26T16:59:55Z</time>
      </trkpt>
      <trkpt lat="47.06092" lon="5.46114">
        <ele>191.920288</ele>
        <time>2011-04-26T17:00:05Z</time>
      </trkpt>
      <trkpt lat="47.06086" lon="5.46135">
        <ele>191.439575</ele>
        <time>2011-04-26T17:00:09Z</time>
      </trkpt>
      <trkpt lat="47.0607" lon="5.46169">
        <ele>189.997681</ele>
        <time>2011-04-26T17:00:14Z</time>
      </trkpt>
      <trkpt lat="47.0606" lon="5.46183">
        <ele>189.036377</ele>
        <time>2011-04-26T17:00:16Z</time>
      </trkpt>
      <trkpt lat="47.05982" lon="5.4625">
        <ele>187.59436</ele>
        <time>2011-04-26T17:00:29Z</time>
      </trkpt>
      <trkpt lat="47.05876" lon="5.46338">
        <ele>187.11377</ele>
        <time>2011-04-26T17:00:48Z</time>
      </trkpt>
      <trkpt lat="47.05844" lon="5.46356">
        <ele>187.11377</ele>
        <time>2011-04-26T17:00:53Z</time>
      </trkpt>
      <trkpt lat="47.05741" lon="5.46342">
        <ele>187.59436</ele>
        <time>2011-04-26T17:01:09Z</time>
      </trkpt>
      <trkpt lat="47.05586" lon="5.4632">
        <ele>188.555786</ele>
        <time>2011-04-26T17:01:34Z</time>
      </trkpt>
      <trkpt lat="47.05539" lon="5.46345">
        <ele>190.478394</ele>
        <time>2011-04-26T17:01:43Z</time>
      </trkpt>
      <trkpt lat="47.05473" lon="5.46414">
        <ele>192.401123</ele>
        <time>2011-04-26T17:01:58Z</time>
      </trkpt>
      <trkpt lat="47.0537" lon="5.46515">
        <ele>190.958984</ele>
        <time>2011-04-26T17:02:18Z</time>
      </trkpt>
      <trkpt lat="47.05238" lon="5.46635">
        <ele>188.555786</ele>
        <time>2011-04-26T17:02:40Z</time>
      </trkpt>
      <trkpt lat="47.05117" lon="5.46781">
        <ele>188.075073</ele>
        <time>2011-04-26T17:03:03Z</time>
      </trkpt>
      <trkpt lat="47.04989" lon="5.46937">
        <ele>188.555786</ele>
        <time>2011-04-26T17:03:27Z</time>
      </trkpt>
      <trkpt lat="47.04915" lon="5.46985">
        <ele>187.59436</ele>
        <time>2011-04-26T17:03:39Z</time>
      </trkpt>
      <trkpt lat="47.04741" lon="5.47045">
        <ele>187.59436</ele>
        <time>2011-04-26T17:04:04Z</time>
      </trkpt>
      <trkpt lat="47.04668" lon="5.47067">
        <ele>187.59436</ele>
        <time>2011-04-26T17:04:15Z</time>
      </trkpt>
      <trkpt lat="47.04637" lon="5.47078">
        <ele>188.555786</ele>
        <time>2011-04-26T17:04:20Z</time>
      </trkpt>
      <trkpt lat="47.04555" lon="5.47095">
        <ele>188.075073</ele>
        <time>2011-04-26T17:04:32Z</time>
      </trkpt>
      <trkpt lat="47.04468" lon="5.47118">
        <ele>187.59436</ele>
        <time>2011-04-26T17:04:45Z</time>
      </trkpt>
      <trkpt lat="47.04362" lon="5.47148">
        <ele>187.59436</ele>
        <time>2011-04-26T17:05:01Z</time>
      </trkpt>
      <trkpt lat="47.04329" lon="5.47155">
        <ele>187.11377</ele>
        <time>2011-04-26T17:05:06Z</time>
      </trkpt>
      <trkpt lat="47.043" lon="5.47201">
        <ele>189.036377</ele>
        <time>2011-04-26T17:05:13Z</time>
      </trkpt>
      <trkpt lat="47.04289" lon="5.47295">
        <ele>189.036377</ele>
        <time>2011-04-26T17:05:24Z</time>
      </trkpt>
      <trkpt lat="47.04278" lon="5.47323">
        <ele>189.036377</ele>
        <time>2011-04-26T17:05:29Z</time>
      </trkpt>
      <trkpt lat="47.04287" lon="5.47367">
        <ele>190.478394</ele>
        <time>2011-04-26T17:05:37Z</time>
      </trkpt>
      <trkpt lat="47.04392" lon="5.47441">
        <ele>191.439575</ele>
        <time>2011-04-26T17:06:00Z</time>
      </trkpt>
      <trkpt lat="47.04416" lon="5.47461">
        <ele>189.997681</ele>
        <time>2011-04-26T17:06:05Z</time>
      </trkpt>
      <trkpt lat="47.04512" lon="5.47569">
        <ele>189.997681</ele>
        <time>2011-04-26T17:06:27Z</time>
      </trkpt>
      <trkpt lat="47.0462" lon="5.47692">
        <ele>190.478394</ele>
        <time>2011-04-26T17:06:52Z</time>
      </trkpt>
      <trkpt lat="47.04743" lon="5.47787">
        <ele>190.958984</ele>
        <time>2011-04-26T17:07:18Z</time>
      </trkpt>
      <trkpt lat="47.04832" lon="5.47812">
        <ele>190.958984</ele>
        <time>2011-04-26T17:07:34Z</time>
      </trkpt>
      <trkpt lat="47.04843" lon="5.47815">
        <ele>190.478394</ele>
        <time>2011-04-26T17:07:36Z</time>
      </trkpt>
      <trkpt lat="47.04919" lon="5.47844">
        <ele>191.439575</ele>
        <time>2011-04-26T17:07:50Z</time>
      </trkpt>
      <trkpt lat="47.05074" lon="5.47971">
        <ele>190.958984</ele>
        <time>2011-04-26T17:08:20Z</time>
      </trkpt>
      <trkpt lat="47.05089" lon="5.48">
        <ele>190.958984</ele>
        <time>2011-04-26T17:08:24Z</time>
      </trkpt>
      <trkpt lat="47.05158" lon="5.48158">
        <ele>189.997681</ele>
        <time>2011-04-26T17:08:46Z</time>
      </trkpt>
      <trkpt lat="47.0524" lon="5.4826">
        <ele>189.997681</ele>
        <time>2011-04-26T17:09:04Z</time>
      </trkpt>
      <trkpt lat="47.05357" lon="5.48327">
        <ele>189.997681</ele>
        <time>2011-04-26T17:09:25Z</time>
      </trkpt>
      <trkpt lat="47.05457" lon="5.48326">
        <ele>191.920288</ele>
        <time>2011-04-26T17:09:43Z</time>
      </trkpt>
      <trkpt lat="47.05558" lon="5.48284">
        <ele>191.920288</ele>
        <time>2011-04-26T17:10:02Z</time>
      </trkpt>
      <trkpt lat="47.05621" lon="5.48276">
        <ele>191.439575</ele>
        <time>2011-04-26T17:10:13Z</time>
      </trkpt>
      <trkpt lat="47.05691" lon="5.48307">
        <ele>190.958984</ele>
        <time>2011-04-26T17:10:25Z</time>
      </trkpt>
      <trkpt lat="47.05733" lon="5.4838">
        <ele>191.439575</ele>
        <time>2011-04-26T17:10:36Z</time>
      </trkpt>
      <trkpt lat="47.05745" lon="5.48397">
        <ele>193.362305</ele>
        <time>2011-04-26T17:10:39Z</time>
      </trkpt>
      <trkpt lat="47.05774" lon="5.484">
        <ele>192.401123</ele>
        <time>2011-04-26T17:10:45Z</time>
      </trkpt>
      <trkpt lat="47.05905" lon="5.48327">
        <ele>192.881714</ele>
        <time>2011-04-26T17:11:10Z</time>
      </trkpt>
      <trkpt lat="47.06002" lon="5.483">
        <ele>191.439575</ele>
        <time>2011-04-26T17:11:27Z</time>
      </trkpt>
      <trkpt lat="47.06072" lon="5.48294">
        <ele>192.881714</ele>
        <time>2011-04-26T17:11:39Z</time>
      </trkpt>
      <trkpt lat="47.06158" lon="5.48247">
        <ele>193.362305</ele>
        <time>2011-04-26T17:11:56Z</time>
      </trkpt>
      <trkpt lat="47.06205" lon="5.48221">
        <ele>193.362305</ele>
        <time>2011-04-26T17:12:05Z</time>
      </trkpt>
      <trkpt lat="47.06226" lon="5.48214">
        <ele>193.843018</ele>
        <time>2011-04-26T17:12:09Z</time>
      </trkpt>
      <trkpt lat="47.06282" lon="5.48213">
        <ele>193.843018</ele>
        <time>2011-04-26T17:12:21Z</time>
      </trkpt>
      <trkpt lat="47.06363" lon="5.48233">
        <ele>197.20752</ele>
        <time>2011-04-26T17:12:38Z</time>
      </trkpt>
      <trkpt lat="47.06413" lon="5.48256">
        <ele>200.091675</ele>
        <time>2011-04-26T17:12:49Z</time>
      </trkpt>
      <trkpt lat="47.06417" lon="5.48258">
        <ele>200.572266</ele>
        <time>2011-04-26T17:12:50Z</time>
      </trkpt>
      <trkpt lat="47.06449" lon="5.48271">
        <ele>201.052856</ele>
        <time>2011-04-26T17:12:57Z</time>
      </trkpt>
      <trkpt lat="47.06492" lon="5.48278">
        <ele>202.014282</ele>
        <time>2011-04-26T17:13:06Z</time>
      </trkpt>
      <trkpt lat="47.06533" lon="5.4831">
        <ele>202.014282</ele>
        <time>2011-04-26T17:13:15Z</time>
      </trkpt>
      <trkpt lat="47.06552" lon="5.48347">
        <ele>201.533569</ele>
        <time>2011-04-26T17:13:21Z</time>
      </trkpt>
      <trkpt lat="47.06569" lon="5.48408">
        <ele>202.494873</ele>
        <time>2011-04-26T17:13:29Z</time>
      </trkpt>
      <trkpt lat="47.06595" lon="5.48442">
        <ele>202.494873</ele>
        <time>2011-04-26T17:13:36Z</time>
      </trkpt>
      <trkpt lat="47.06642" lon="5.48455">
        <ele>203.93689</ele>
        <time>2011-04-26T17:13:46Z</time>
      </trkpt>
      <trkpt lat="47.06662" lon="5.48497">
        <ele>203.93689</ele>
        <time>2011-04-26T17:13:54Z</time>
      </trkpt>
      <trkpt lat="47.06654" lon="5.48582">
        <ele>203.456177</ele>
        <time>2011-04-26T17:14:05Z</time>
      </trkpt>
      <trkpt lat="47.0664" lon="5.48637">
        <ele>201.533569</ele>
        <time>2011-04-26T17:14:11Z</time>
      </trkpt>
      <trkpt lat="47.06636" lon="5.48711">
        <ele>202.014282</ele>
        <time>2011-04-26T17:14:19Z</time>
      </trkpt>
      <trkpt lat="47.06645" lon="5.48741">
        <ele>202.975464</ele>
        <time>2011-04-26T17:14:23Z</time>
      </trkpt>
      <trkpt lat="47.06687" lon="5.48814">
        <ele>205.378784</ele>
        <time>2011-04-26T17:14:36Z</time>
      </trkpt>
      <trkpt lat="47.06711" lon="5.48843">
        <ele>206.340088</ele>
        <time>2011-04-26T17:14:43Z</time>
      </trkpt>
      <trkpt lat="47.06737" lon="5.48863">
        <ele>206.340088</ele>
        <time>2011-04-26T17:14:53Z</time>
      </trkpt>
      <trkpt lat="47.06796" lon="5.48805">
        <ele>206.340088</ele>
        <time>2011-04-26T17:15:07Z</time>
      </trkpt>
      <trkpt lat="47.069" lon="5.48707">
        <ele>204.898071</ele>
        <time>2011-04-26T17:15:28Z</time>
      </trkpt>
      <trkpt lat="47.06906" lon="5.48705">
        <ele>204.41748</ele>
        <time>2011-04-26T17:15:29Z</time>
      </trkpt>
      <trkpt lat="47.06929" lon="5.48702">
        <ele>204.898071</ele>
        <time>2011-04-26T17:15:33Z</time>
      </trkpt>
      <trkpt lat="47.06973" lon="5.4872">
        <ele>203.93689</ele>
        <time>2011-04-26T17:15:44Z</time>
      </trkpt>
      <trkpt lat="47.06999" lon="5.48755">
        <ele>205.378784</ele>
        <time>2011-04-26T17:15:53Z</time>
      </trkpt>
      <trkpt lat="47.07074" lon="5.48836">
        <ele>205.378784</ele>
        <time>2011-04-26T17:16:11Z</time>
      </trkpt>
      <trkpt lat="47.0714" lon="5.48964">
        <ele>206.340088</ele>
        <time>2011-04-26T17:16:29Z</time>
      </trkpt>
      <trkpt lat="47.07187" lon="5.49045">
        <ele>206.340088</ele>
        <time>2011-04-26T17:16:43Z</time>
      </trkpt>
      <trkpt lat="47.07217" lon="5.49129">
        <ele>206.820679</ele>
        <time>2011-04-26T17:16:56Z</time>
      </trkpt>
      <trkpt lat="47.07222" lon="5.49146">
        <ele>207.301392</ele>
        <time>2011-04-26T17:16:58Z</time>
      </trkpt>
      <trkpt lat="47.07225" lon="5.49163">
        <ele>207.782104</ele>
        <time>2011-04-26T17:17:00Z</time>
      </trkpt>
      <trkpt lat="47.07235" lon="5.49184">
        <ele>209.224121</ele>
        <time>2011-04-26T17:17:03Z</time>
      </trkpt>
      <trkpt lat="47.07311" lon="5.49293">
        <ele>209.704834</ele>
        <time>2011-04-26T17:17:22Z</time>
      </trkpt>
      <trkpt lat="47.07394" lon="5.49392">
        <ele>206.820679</ele>
        <time>2011-04-26T17:17:40Z</time>
      </trkpt>
      <trkpt lat="47.07404" lon="5.49404">
        <ele>206.340088</ele>
        <time>2011-04-26T17:17:42Z</time>
      </trkpt>
      <trkpt lat="47.07425" lon="5.49454">
        <ele>205.378784</ele>
        <time>2011-04-26T17:17:48Z</time>
      </trkpt>
      <trkpt lat="47.07434" lon="5.49468">
        <ele>205.378784</ele>
        <time>2011-04-26T17:17:50Z</time>
      </trkpt>
      <trkpt lat="47.07432" lon="5.49507">
        <ele>205.378784</ele>
        <time>2011-04-26T17:17:56Z</time>
      </trkpt>
      <trkpt lat="47.0743" lon="5.4951">
        <ele>204.41748</ele>
        <time>2011-04-26T17:18:14Z</time>
      </trkpt>
      <trkpt lat="47.07433" lon="5.49513">
        <ele>206.340088</ele>
        <time>2011-04-26T17:18:42Z</time>
      </trkpt>
      <trkpt lat="47.07432" lon="5.49514">
        <ele>206.340088</ele>
        <time>2011-04-26T17:18:56Z</time>
      </trkpt>
      <trkpt lat="47.07432" lon="5.49514">
        <ele>205.859497</ele>
        <time>2011-04-26T17:19:03Z</time>
      </trkpt>
    </trkseg>
  </trk>
</gpx>